<?xml version="1.0" encoding="UTF-8" standalone="no" ?>
<gpx xmlns="http://www.topografix.com/GPX/1/1" creator="MapSource 6.16.3" version="1.1" xmlns:xsi="http://www.w3.org/2001/XMLSchema-instance" xsi:schemaLocation="http://www.topografix.com/GPX/1/1 http://www.topografix.com/GPX/1/1/gpx.xsd">

  <metadata>
    <link href="http://www.garmin.com">
      <text>Garmin International</text>
    </link>
    <time>2026-04-16T15:30:25Z</time>
    <bounds maxlat="42.376098018139601" maxlon="3.11969356611371" minlat="42.35272248275578" minlon="3.096433952450752"/>
  </metadata>

  <trk>
    <name>Llanca 16 AVR 2026</name>
    <extensions>
      <gpxx:TrackExtension xmlns:gpxx="http://www.garmin.com/xmlschemas/GpxExtensions/v3">
        <gpxx:DisplayColor>Red</gpxx:DisplayColor>
      </gpxx:TrackExtension>
    </extensions>
    <trkseg>
      <trkpt lat="42.352782748639584" lon="3.112561320886016">
        <ele>-22.449999999999999</ele>
        <time>2026-04-16T08:14:37Z</time>
      </trkpt>
      <trkpt lat="42.35280848108232" lon="3.112643798813224">
        <ele>-22.449999999999999</ele>
        <time>2026-04-16T08:14:46Z</time>
      </trkpt>
      <trkpt lat="42.352868495509028" lon="3.112737340852618">
        <ele>-22.449999999999999</ele>
        <time>2026-04-16T08:14:55Z</time>
      </trkpt>
      <trkpt lat="42.352970167994499" lon="3.112838258966804">
        <ele>-21.969999999999999</ele>
        <time>2026-04-16T08:15:08Z</time>
      </trkpt>
      <trkpt lat="42.353086760267615" lon="3.112965999171138">
        <ele>-19.09</ele>
        <time>2026-04-16T08:15:39Z</time>
      </trkpt>
      <trkpt lat="42.353128418326378" lon="3.113108659163117">
        <ele>-18.129999999999999</ele>
        <time>2026-04-16T08:15:48Z</time>
      </trkpt>
      <trkpt lat="42.353174602612853" lon="3.113244026899338">
        <ele>-16.210000000000001</ele>
        <time>2026-04-16T08:15:57Z</time>
      </trkpt>
      <trkpt lat="42.353225313127041" lon="3.113353243097663">
        <ele>-15.24</ele>
        <time>2026-04-16T08:16:07Z</time>
      </trkpt>
      <trkpt lat="42.353273341432214" lon="3.113477965816855">
        <ele>-13.800000000000001</ele>
        <time>2026-04-16T08:16:18Z</time>
      </trkpt>
      <trkpt lat="42.35330980271101" lon="3.113606376573443">
        <ele>-12.359999999999999</ele>
        <time>2026-04-16T08:16:30Z</time>
      </trkpt>
      <trkpt lat="42.353366632014513" lon="3.113725483417511">
        <ele>-10.92</ele>
        <time>2026-04-16T08:16:41Z</time>
      </trkpt>
      <trkpt lat="42.353417342528701" lon="3.113847440108657">
        <ele>-9.960000000000001</ele>
        <time>2026-04-16T08:16:52Z</time>
      </trkpt>
      <trkpt lat="42.353484397754073" lon="3.113939557224512">
        <ele>-9</ele>
        <time>2026-04-16T08:17:04Z</time>
      </trkpt>
      <trkpt lat="42.353544998914003" lon="3.114033602178097">
        <ele>-8.029999999999999</ele>
        <time>2026-04-16T08:17:15Z</time>
      </trkpt>
      <trkpt lat="42.353598140180111" lon="3.114174837246537">
        <ele>-6.59</ele>
        <time>2026-04-16T08:17:30Z</time>
      </trkpt>
      <trkpt lat="42.353660920634866" lon="3.114341804757714">
        <ele>-4.67</ele>
        <time>2026-04-16T08:17:45Z</time>
      </trkpt>
      <trkpt lat="42.3537075240165" lon="3.114464096724987">
        <ele>-4.19</ele>
        <time>2026-04-16T08:17:56Z</time>
      </trkpt>
      <trkpt lat="42.35377935692668" lon="3.114589070901275">
        <ele>-3.23</ele>
        <time>2026-04-16T08:18:10Z</time>
      </trkpt>
      <trkpt lat="42.353875497356057" lon="3.114699628204107">
        <ele>-1.3</ele>
        <time>2026-04-16T08:18:32Z</time>
      </trkpt>
      <trkpt lat="42.353930482640862" lon="3.114813789725304">
        <ele>-1.3</ele>
        <time>2026-04-16T08:18:38Z</time>
      </trkpt>
      <trkpt lat="42.353993849828839" lon="3.114918395876885">
        <ele>-0.34</ele>
        <time>2026-04-16T08:18:48Z</time>
      </trkpt>
      <trkpt lat="42.354050008580089" lon="3.115035910159349">
        <ele>0.62</ele>
        <time>2026-04-16T08:18:58Z</time>
      </trkpt>
      <trkpt lat="42.354125361889601" lon="3.115182090550661">
        <ele>1.1</ele>
        <time>2026-04-16T08:19:11Z</time>
      </trkpt>
      <trkpt lat="42.354175904765725" lon="3.11530077829957">
        <ele>3.02</ele>
        <time>2026-04-16T08:19:21Z</time>
      </trkpt>
      <trkpt lat="42.35418344847858" lon="3.115445617586374">
        <ele>5.42</ele>
        <time>2026-04-16T08:19:32Z</time>
      </trkpt>
      <trkpt lat="42.354210522025824" lon="3.115598168224096">
        <ele>7.35</ele>
        <time>2026-04-16T08:19:44Z</time>
      </trkpt>
      <trkpt lat="42.354247318580747" lon="3.115724567323923">
        <ele>9.75</ele>
        <time>2026-04-16T08:19:56Z</time>
      </trkpt>
      <trkpt lat="42.354274056851864" lon="3.11587150208652">
        <ele>13.6</ele>
        <time>2026-04-16T08:20:11Z</time>
      </trkpt>
      <trkpt lat="42.354331389069557" lon="3.11608943156898">
        <ele>17.920000000000002</ele>
        <time>2026-04-16T08:20:40Z</time>
      </trkpt>
      <trkpt lat="42.354419901967049" lon="3.116601733490825">
        <ele>33.299999999999997</ele>
        <time>2026-04-16T08:22:05Z</time>
      </trkpt>
      <trkpt lat="42.3545743804425" lon="3.116996856406331">
        <ele>47.719999999999999</ele>
        <time>2026-04-16T08:23:35Z</time>
      </trkpt>
      <trkpt lat="42.354595838114619" lon="3.117131218314171">
        <ele>50.609999999999999</ele>
        <time>2026-04-16T08:23:49Z</time>
      </trkpt>
      <trkpt lat="42.35462031327188" lon="3.117256695404649">
        <ele>53.009999999999998</ele>
        <time>2026-04-16T08:24:04Z</time>
      </trkpt>
      <trkpt lat="42.3546486441046" lon="3.117400612682104">
        <ele>56.859999999999999</ele>
        <time>2026-04-16T08:24:21Z</time>
      </trkpt>
      <trkpt lat="42.354664066806436" lon="3.117533465847373">
        <ele>59.740000000000002</ele>
        <time>2026-04-16T08:24:35Z</time>
      </trkpt>
      <trkpt lat="42.35468284226954" lon="3.117663385346532">
        <ele>61.659999999999997</ele>
        <time>2026-04-16T08:24:47Z</time>
      </trkpt>
      <trkpt lat="42.354715699329972" lon="3.117790706455708">
        <ele>64.069999999999993</ele>
        <time>2026-04-16T08:25:08Z</time>
      </trkpt>
      <trkpt lat="42.35475467517972" lon="3.117913417518139">
        <ele>65.030000000000001</ele>
        <time>2026-04-16T08:25:18Z</time>
      </trkpt>
      <trkpt lat="42.354778647422791" lon="3.118057837709785">
        <ele>67.909999999999997</ele>
        <time>2026-04-16T08:25:31Z</time>
      </trkpt>
      <trkpt lat="42.354796752333641" lon="3.118187254294753">
        <ele>70.790000000000006</ele>
        <time>2026-04-16T08:25:44Z</time>
      </trkpt>
      <trkpt lat="42.354826927185059" lon="3.118321029469371">
        <ele>72.719999999999999</ele>
        <time>2026-04-16T08:25:55Z</time>
      </trkpt>
      <trkpt lat="42.354855258017778" lon="3.118453295901418">
        <ele>74.640000000000001</ele>
        <time>2026-04-16T08:26:06Z</time>
      </trkpt>
      <trkpt lat="42.354880152270198" lon="3.118586065247655">
        <ele>76.079999999999998</ele>
        <time>2026-04-16T08:26:16Z</time>
      </trkpt>
      <trkpt lat="42.354915523901582" lon="3.118714727461338">
        <ele>77.519999999999996</ele>
        <time>2026-04-16T08:26:26Z</time>
      </trkpt>
      <trkpt lat="42.354948800057173" lon="3.118849508464336">
        <ele>78</ele>
        <time>2026-04-16T08:26:36Z</time>
      </trkpt>
      <trkpt lat="42.354986434802413" lon="3.118997616693378">
        <ele>79.930000000000007</ele>
        <time>2026-04-16T08:26:51Z</time>
      </trkpt>
      <trkpt lat="42.35501803457737" lon="3.119133319705725">
        <ele>81.849999999999994</ele>
        <time>2026-04-16T08:27:02Z</time>
      </trkpt>
      <trkpt lat="42.355050053447485" lon="3.119262820109725">
        <ele>81.849999999999994</ele>
        <time>2026-04-16T08:27:12Z</time>
      </trkpt>
      <trkpt lat="42.355092465877533" lon="3.119386453181505">
        <ele>82.810000000000002</ele>
        <time>2026-04-16T08:27:23Z</time>
      </trkpt>
      <trkpt lat="42.355135213583708" lon="3.119498938322067">
        <ele>82.810000000000002</ele>
        <time>2026-04-16T08:27:33Z</time>
      </trkpt>
      <trkpt lat="42.355187265202403" lon="3.119620224460959">
        <ele>83.290000000000006</ele>
        <time>2026-04-16T08:27:47Z</time>
      </trkpt>
      <trkpt lat="42.355298241600394" lon="3.119648722931743">
        <ele>90.5</ele>
        <time>2026-04-16T08:32:16Z</time>
      </trkpt>
      <trkpt lat="42.355384407564998" lon="3.11969356611371">
        <ele>92.900000000000006</ele>
        <time>2026-04-16T08:32:27Z</time>
      </trkpt>
      <trkpt lat="42.355481972917914" lon="3.119685687124729">
        <ele>95.310000000000002</ele>
        <time>2026-04-16T08:32:38Z</time>
      </trkpt>
      <trkpt lat="42.355573587119579" lon="3.119626259431243">
        <ele>97.709999999999994</ele>
        <time>2026-04-16T08:32:49Z</time>
      </trkpt>
      <trkpt lat="42.355671487748623" lon="3.119599521160126">
        <ele>100.11</ele>
        <time>2026-04-16T08:33:00Z</time>
      </trkpt>
      <trkpt lat="42.355769388377666" lon="3.119585104286671">
        <ele>102.04000000000001</ele>
        <time>2026-04-16T08:33:11Z</time>
      </trkpt>
      <trkpt lat="42.355863684788346" lon="3.119551660493016">
        <ele>104.44</ele>
        <time>2026-04-16T08:33:23Z</time>
      </trkpt>
      <trkpt lat="42.355948258191347" lon="3.119492316618562">
        <ele>106.36</ele>
        <time>2026-04-16T08:33:34Z</time>
      </trkpt>
      <trkpt lat="42.356031658127904" lon="3.119430877268314">
        <ele>108.77</ele>
        <time>2026-04-16T08:33:44Z</time>
      </trkpt>
      <trkpt lat="42.356122601777315" lon="3.119384692981839">
        <ele>110.20999999999999</ele>
        <time>2026-04-16T08:33:54Z</time>
      </trkpt>
      <trkpt lat="42.356209103018045" lon="3.119320822879672">
        <ele>112.13</ele>
        <time>2026-04-16T08:34:05Z</time>
      </trkpt>
      <trkpt lat="42.356292083859444" lon="3.119236333295703">
        <ele>114.05</ele>
        <time>2026-04-16T08:34:16Z</time>
      </trkpt>
      <trkpt lat="42.356373136863112" lon="3.119169361889362">
        <ele>115.98</ele>
        <time>2026-04-16T08:34:26Z</time>
      </trkpt>
      <trkpt lat="42.356454022228718" lon="3.119088476523757">
        <ele>117.90000000000001</ele>
        <time>2026-04-16T08:34:36Z</time>
      </trkpt>
      <trkpt lat="42.356528537347913" lon="3.119009770452976">
        <ele>118.86</ele>
        <time>2026-04-16T08:34:44Z</time>
      </trkpt>
      <trkpt lat="42.356620403006673" lon="3.118932656943798">
        <ele>119.34</ele>
        <time>2026-04-16T08:34:53Z</time>
      </trkpt>
      <trkpt lat="42.356697851791978" lon="3.118864092975855">
        <ele>119.81999999999999</ele>
        <time>2026-04-16T08:35:01Z</time>
      </trkpt>
      <trkpt lat="42.356782425194979" lon="3.118794774636626">
        <ele>120.3</ele>
        <time>2026-04-16T08:35:09Z</time>
      </trkpt>
      <trkpt lat="42.356856353580952" lon="3.118723696097732">
        <ele>120.3</ele>
        <time>2026-04-16T08:35:17Z</time>
      </trkpt>
      <trkpt lat="42.356929108500481" lon="3.118639709427953">
        <ele>121.73999999999999</ele>
        <time>2026-04-16T08:35:25Z</time>
      </trkpt>
      <trkpt lat="42.35700530000031" lon="3.118559997528791">
        <ele>122.22</ele>
        <time>2026-04-16T08:35:33Z</time>
      </trkpt>
      <trkpt lat="42.357077719643712" lon="3.11847441829741">
        <ele>122.22</ele>
        <time>2026-04-16T08:35:40Z</time>
      </trkpt>
      <trkpt lat="42.357162041589618" lon="3.118386240676045">
        <ele>122.70999999999999</ele>
        <time>2026-04-16T08:35:48Z</time>
      </trkpt>
      <trkpt lat="42.357249381020665" lon="3.118304265663028">
        <ele>124.63</ele>
        <time>2026-04-16T08:35:57Z</time>
      </trkpt>
      <trkpt lat="42.357326410710812" lon="3.118225475773215">
        <ele>125.11</ele>
        <time>2026-04-16T08:36:05Z</time>
      </trkpt>
      <trkpt lat="42.357392208650708" lon="3.118148781359196">
        <ele>124.15000000000001</ele>
        <time>2026-04-16T08:36:17Z</time>
      </trkpt>
      <trkpt lat="42.35747192054987" lon="3.118080971762538">
        <ele>124.63</ele>
        <time>2026-04-16T08:36:26Z</time>
      </trkpt>
      <trkpt lat="42.357565881684422" lon="3.118023052811623">
        <ele>124.63</ele>
        <time>2026-04-16T08:36:34Z</time>
      </trkpt>
      <trkpt lat="42.357654059305787" lon="3.117972677573562">
        <ele>125.11</ele>
        <time>2026-04-16T08:36:42Z</time>
      </trkpt>
      <trkpt lat="42.357744751498103" lon="3.117909226566553">
        <ele>124.63</ele>
        <time>2026-04-16T08:36:50Z</time>
      </trkpt>
      <trkpt lat="42.357844579964876" lon="3.117845356464386">
        <ele>123.67</ele>
        <time>2026-04-16T08:36:58Z</time>
      </trkpt>
      <trkpt lat="42.357926890254021" lon="3.117781989276409">
        <ele>125.59</ele>
        <time>2026-04-16T08:37:17Z</time>
      </trkpt>
      <trkpt lat="42.358014648780227" lon="3.117717197164893">
        <ele>127.03</ele>
        <time>2026-04-16T08:37:26Z</time>
      </trkpt>
      <trkpt lat="42.358102072030306" lon="3.117669085040689">
        <ele>127.51000000000001</ele>
        <time>2026-04-16T08:37:35Z</time>
      </trkpt>
      <trkpt lat="42.358187232166529" lon="3.117607478052378">
        <ele>127.98999999999999</ele>
        <time>2026-04-16T08:37:43Z</time>
      </trkpt>
      <trkpt lat="42.358280019834638" lon="3.117532460018992">
        <ele>128.47</ele>
        <time>2026-04-16T08:37:51Z</time>
      </trkpt>
      <trkpt lat="42.358372304588556" lon="3.117460375651717">
        <ele>129.43000000000001</ele>
        <time>2026-04-16T08:37:59Z</time>
      </trkpt>
      <trkpt lat="42.358450340107083" lon="3.117395164445043">
        <ele>130.40000000000001</ele>
        <time>2026-04-16T08:38:07Z</time>
      </trkpt>
      <trkpt lat="42.358524603769183" lon="3.117320230230689">
        <ele>131.36000000000001</ele>
        <time>2026-04-16T08:38:15Z</time>
      </trkpt>
      <trkpt lat="42.358606662601233" lon="3.117228616029024">
        <ele>131.36000000000001</ele>
        <time>2026-04-16T08:38:24Z</time>
      </trkpt>
      <trkpt lat="42.358689894899726" lon="3.117122920230031">
        <ele>130.88</ele>
        <time>2026-04-16T08:38:33Z</time>
      </trkpt>
      <trkpt lat="42.358755692839622" lon="3.11702024191618">
        <ele>129.91999999999999</ele>
        <time>2026-04-16T08:38:41Z</time>
      </trkpt>
      <trkpt lat="42.358811683952808" lon="3.116921503096819">
        <ele>128.94999999999999</ele>
        <time>2026-04-16T08:38:48Z</time>
      </trkpt>
      <trkpt lat="42.358863148838282" lon="3.116820836439729">
        <ele>128.94999999999999</ele>
        <time>2026-04-16T08:38:55Z</time>
      </trkpt>
      <trkpt lat="42.358922492712736" lon="3.116712458431721">
        <ele>129.43000000000001</ele>
        <time>2026-04-16T08:39:03Z</time>
      </trkpt>
      <trkpt lat="42.358984183520079" lon="3.116612378507853">
        <ele>129.43000000000001</ele>
        <time>2026-04-16T08:39:11Z</time>
      </trkpt>
      <trkpt lat="42.359052747488022" lon="3.116510035470128">
        <ele>129.91999999999999</ele>
        <time>2026-04-16T08:39:19Z</time>
      </trkpt>
      <trkpt lat="42.359106810763478" lon="3.116410123184323">
        <ele>129.91999999999999</ele>
        <time>2026-04-16T08:39:28Z</time>
      </trkpt>
      <trkpt lat="42.359180320054293" lon="3.116310043260455">
        <ele>129.91999999999999</ele>
        <time>2026-04-16T08:39:36Z</time>
      </trkpt>
      <trkpt lat="42.359249973669648" lon="3.116211472079158">
        <ele>131.36000000000001</ele>
        <time>2026-04-16T08:39:44Z</time>
      </trkpt>
      <trkpt lat="42.359331697225571" lon="3.116123043000698">
        <ele>132.31999999999999</ele>
        <time>2026-04-16T08:39:52Z</time>
      </trkpt>
      <trkpt lat="42.359398249536753" lon="3.116034027189016">
        <ele>133.28</ele>
        <time>2026-04-16T08:40:00Z</time>
      </trkpt>
      <trkpt lat="42.359463209286332" lon="3.115946184843779">
        <ele>134.24000000000001</ele>
        <time>2026-04-16T08:40:08Z</time>
      </trkpt>
      <trkpt lat="42.359521966427565" lon="3.115839399397373">
        <ele>134.24000000000001</ele>
        <time>2026-04-16T08:40:16Z</time>
      </trkpt>
      <trkpt lat="42.359578628093004" lon="3.115730518475175">
        <ele>133.28</ele>
        <time>2026-04-16T08:40:24Z</time>
      </trkpt>
      <trkpt lat="42.359636798501015" lon="3.11563010327518">
        <ele>132.80000000000001</ele>
        <time>2026-04-16T08:40:32Z</time>
      </trkpt>
      <trkpt lat="42.359705362468958" lon="3.115532118827105">
        <ele>131.84</ele>
        <time>2026-04-16T08:40:41Z</time>
      </trkpt>
      <trkpt lat="42.359775435179472" lon="3.115435978397727">
        <ele>129.91999999999999</ele>
        <time>2026-04-16T08:40:50Z</time>
      </trkpt>
      <trkpt lat="42.359855649992824" lon="3.115348722785711">
        <ele>128.47</ele>
        <time>2026-04-16T08:41:00Z</time>
      </trkpt>
      <trkpt lat="42.359927734360099" lon="3.11528124846518">
        <ele>128.47</ele>
        <time>2026-04-16T08:41:07Z</time>
      </trkpt>
      <trkpt lat="42.360009038820863" lon="3.115208158269525">
        <ele>129.43000000000001</ele>
        <time>2026-04-16T08:41:16Z</time>
      </trkpt>
      <trkpt lat="42.360088918358088" lon="3.115140097215772">
        <ele>130.88</ele>
        <time>2026-04-16T08:41:25Z</time>
      </trkpt>
      <trkpt lat="42.360175671055913" lon="3.115059798583388">
        <ele>131.84</ele>
        <time>2026-04-16T08:41:34Z</time>
      </trkpt>
      <trkpt lat="42.360244486480951" lon="3.114982349798083">
        <ele>131.84</ele>
        <time>2026-04-16T08:41:42Z</time>
      </trkpt>
      <trkpt lat="42.360329143702984" lon="3.114912444725633">
        <ele>131.84</ele>
        <time>2026-04-16T08:41:51Z</time>
      </trkpt>
      <trkpt lat="42.360409358516335" lon="3.114829128608108">
        <ele>132.80000000000001</ele>
        <time>2026-04-16T08:42:00Z</time>
      </trkpt>
      <trkpt lat="42.360482783988118" lon="3.11474229209125">
        <ele>134.24000000000001</ele>
        <time>2026-04-16T08:42:09Z</time>
      </trkpt>
      <trkpt lat="42.360555371269584" lon="3.114641960710287">
        <ele>134.72</ele>
        <time>2026-04-16T08:42:18Z</time>
      </trkpt>
      <trkpt lat="42.360625695437193" lon="3.114552274346352">
        <ele>135.68000000000001</ele>
        <time>2026-04-16T08:42:26Z</time>
      </trkpt>
      <trkpt lat="42.360701384022832" lon="3.114475831389427">
        <ele>136.63999999999999</ele>
        <time>2026-04-16T08:42:35Z</time>
      </trkpt>
      <trkpt lat="42.360787969082594" lon="3.11441196128726">
        <ele>138.09</ele>
        <time>2026-04-16T08:42:45Z</time>
      </trkpt>
      <trkpt lat="42.360883355140686" lon="3.114389581605792">
        <ele>139.05000000000001</ele>
        <time>2026-04-16T08:42:54Z</time>
      </trkpt>
      <trkpt lat="42.360972203314304" lon="3.114385977387428">
        <ele>139.53</ele>
        <time>2026-04-16T08:43:03Z</time>
      </trkpt>
      <trkpt lat="42.361066080629826" lon="3.114377511665225">
        <ele>140.49000000000001</ele>
        <time>2026-04-16T08:43:11Z</time>
      </trkpt>
      <trkpt lat="42.36116549000144" lon="3.114371811971068">
        <ele>140.49000000000001</ele>
        <time>2026-04-16T08:43:20Z</time>
      </trkpt>
      <trkpt lat="42.361270096153021" lon="3.114358652383089">
        <ele>140.49000000000001</ele>
        <time>2026-04-16T08:43:29Z</time>
      </trkpt>
      <trkpt lat="42.361364308744669" lon="3.114344486966729">
        <ele>140.49000000000001</ele>
        <time>2026-04-16T08:43:37Z</time>
      </trkpt>
      <trkpt lat="42.361464556306601" lon="3.114324538037181">
        <ele>141.93000000000001</ele>
        <time>2026-04-16T08:43:46Z</time>
      </trkpt>
      <trkpt lat="42.361560361459851" lon="3.114279862493277">
        <ele>141.93000000000001</ele>
        <time>2026-04-16T08:43:55Z</time>
      </trkpt>
      <trkpt lat="42.361653568223119" lon="3.114231918007135">
        <ele>142.41</ele>
        <time>2026-04-16T08:44:03Z</time>
      </trkpt>
      <trkpt lat="42.361751133576035" lon="3.114207191392779">
        <ele>143.37</ele>
        <time>2026-04-16T08:44:11Z</time>
      </trkpt>
      <trkpt lat="42.361844843253493" lon="3.114197133108974">
        <ele>143.37</ele>
        <time>2026-04-16T08:44:19Z</time>
      </trkpt>
      <trkpt lat="42.361936122179031" lon="3.114200234413147">
        <ele>143.37</ele>
        <time>2026-04-16T08:44:27Z</time>
      </trkpt>
      <trkpt lat="42.362026898190379" lon="3.114240132272244">
        <ele>143.37</ele>
        <time>2026-04-16T08:44:35Z</time>
      </trkpt>
      <trkpt lat="42.362111723050475" lon="3.114318922162056">
        <ele>143.84999999999999</ele>
        <time>2026-04-16T08:44:43Z</time>
      </trkpt>
      <trkpt lat="42.362192356958985" lon="3.114394443109632">
        <ele>143.84999999999999</ele>
        <time>2026-04-16T08:44:51Z</time>
      </trkpt>
      <trkpt lat="42.362287072464824" lon="3.114430066198111">
        <ele>143.84999999999999</ele>
        <time>2026-04-16T08:45:02Z</time>
      </trkpt>
      <trkpt lat="42.36237533390522" lon="3.114498211070895">
        <ele>144.34</ele>
        <time>2026-04-16T08:45:14Z</time>
      </trkpt>
      <trkpt lat="42.362447753548622" lon="3.114442639052868">
        <ele>145.30000000000001</ele>
        <time>2026-04-16T08:46:34Z</time>
      </trkpt>
      <trkpt lat="42.362520508468151" lon="3.114344822242856">
        <ele>146.25999999999999</ele>
        <time>2026-04-16T08:46:47Z</time>
      </trkpt>
      <trkpt lat="42.362580439075828" lon="3.114234348759055">
        <ele>148.18000000000001</ele>
        <time>2026-04-16T08:46:57Z</time>
      </trkpt>
      <trkpt lat="42.362637016922235" lon="3.114125300198793">
        <ele>149.62</ele>
        <time>2026-04-16T08:47:07Z</time>
      </trkpt>
      <trkpt lat="42.362693762406707" lon="3.114012312144041">
        <ele>151.53999999999999</ele>
        <time>2026-04-16T08:47:17Z</time>
      </trkpt>
      <trkpt lat="42.362775653600693" lon="3.113869400694966">
        <ele>154.43000000000001</ele>
        <time>2026-04-16T08:47:34Z</time>
      </trkpt>
      <trkpt lat="42.362848659977317" lon="3.113743169233203">
        <ele>157.31</ele>
        <time>2026-04-16T08:47:49Z</time>
      </trkpt>
      <trkpt lat="42.362934658303857" lon="3.113636802881956">
        <ele>158.75</ele>
        <time>2026-04-16T08:48:00Z</time>
      </trkpt>
      <trkpt lat="42.363001713529229" lon="3.113530687987804">
        <ele>159.24000000000001</ele>
        <time>2026-04-16T08:48:10Z</time>
      </trkpt>
      <trkpt lat="42.363060135394335" lon="3.113412084057927">
        <ele>160.68000000000001</ele>
        <time>2026-04-16T08:48:23Z</time>
      </trkpt>
      <trkpt lat="42.363119563087821" lon="3.113299096003175">
        <ele>161.16</ele>
        <time>2026-04-16T08:48:32Z</time>
      </trkpt>
      <trkpt lat="42.363188546150923" lon="3.113180827349424">
        <ele>161.16</ele>
        <time>2026-04-16T08:48:41Z</time>
      </trkpt>
      <trkpt lat="42.363259457051754" lon="3.113075466826558">
        <ele>162.12</ele>
        <time>2026-04-16T08:48:50Z</time>
      </trkpt>
      <trkpt lat="42.363329110667109" lon="3.1129783205688">
        <ele>162.59999999999999</ele>
        <time>2026-04-16T08:48:59Z</time>
      </trkpt>
      <trkpt lat="42.363391974940896" lon="3.112880503758788">
        <ele>164.03999999999999</ele>
        <time>2026-04-16T08:49:08Z</time>
      </trkpt>
      <trkpt lat="42.363458108156919" lon="3.112786458805203">
        <ele>165.47999999999999</ele>
        <time>2026-04-16T08:49:17Z</time>
      </trkpt>
      <trkpt lat="42.363534467294812" lon="3.112679840996862">
        <ele>166.93000000000001</ele>
        <time>2026-04-16T08:49:27Z</time>
      </trkpt>
      <trkpt lat="42.363606300204992" lon="3.112582694739103">
        <ele>167.88999999999999</ele>
        <time>2026-04-16T08:49:36Z</time>
      </trkpt>
      <trkpt lat="42.36368584446609" lon="3.112495439127088">
        <ele>168.37</ele>
        <time>2026-04-16T08:49:46Z</time>
      </trkpt>
      <trkpt lat="42.363771423697472" lon="3.112415224313736">
        <ele>169.33000000000001</ele>
        <time>2026-04-16T08:49:55Z</time>
      </trkpt>
      <trkpt lat="42.36386270262301" lon="3.112343307584524">
        <ele>170.77000000000001</ele>
        <time>2026-04-16T08:50:04Z</time>
      </trkpt>
      <trkpt lat="42.363944929093122" lon="3.11226200312376">
        <ele>171.72999999999999</ele>
        <time>2026-04-16T08:50:13Z</time>
      </trkpt>
      <trkpt lat="42.364033358171582" lon="3.112186817452312">
        <ele>171.72999999999999</ele>
        <time>2026-04-16T08:50:22Z</time>
      </trkpt>
      <trkpt lat="42.364127403125167" lon="3.112193439155817">
        <ele>172.21000000000001</ele>
        <time>2026-04-16T08:50:31Z</time>
      </trkpt>
      <trkpt lat="42.36420962959528" lon="3.112269127741456">
        <ele>174.13999999999999</ele>
        <time>2026-04-16T08:50:40Z</time>
      </trkpt>
      <trkpt lat="42.364294622093439" lon="3.112320341169834">
        <ele>174.13999999999999</ele>
        <time>2026-04-16T08:50:48Z</time>
      </trkpt>
      <trkpt lat="42.36439143307507" lon="3.112345738336444">
        <ele>174.62</ele>
        <time>2026-04-16T08:50:57Z</time>
      </trkpt>
      <trkpt lat="42.364491932094097" lon="3.112334506586194">
        <ele>175.09999999999999</ele>
        <time>2026-04-16T08:51:06Z</time>
      </trkpt>
      <trkpt lat="42.364597879350185" lon="3.112318748608232">
        <ele>175.09999999999999</ele>
        <time>2026-04-16T08:51:25Z</time>
      </trkpt>
      <trkpt lat="42.364700054749846" lon="3.112278347834945">
        <ele>175.58000000000001</ele>
        <time>2026-04-16T08:51:33Z</time>
      </trkpt>
      <trkpt lat="42.364806504920125" lon="3.112265858799219">
        <ele>175.58000000000001</ele>
        <time>2026-04-16T08:51:41Z</time>
      </trkpt>
      <trkpt lat="42.364908596500754" lon="3.112252531573176">
        <ele>176.06</ele>
        <time>2026-04-16T08:51:49Z</time>
      </trkpt>
      <trkpt lat="42.365014879032969" lon="3.112237779423595">
        <ele>176.06</ele>
        <time>2026-04-16T08:51:57Z</time>
      </trkpt>
      <trkpt lat="42.365114791318774" lon="3.112228643149138">
        <ele>176.06</ele>
        <time>2026-04-16T08:52:05Z</time>
      </trkpt>
      <trkpt lat="42.365209171548486" lon="3.112245155498385">
        <ele>176.06</ele>
        <time>2026-04-16T08:52:13Z</time>
      </trkpt>
      <trkpt lat="42.365304976701736" lon="3.112278515473008">
        <ele>177.02000000000001</ele>
        <time>2026-04-16T08:52:21Z</time>
      </trkpt>
      <trkpt lat="42.365402625873685" lon="3.11230793595314">
        <ele>177.02000000000001</ele>
        <time>2026-04-16T08:52:29Z</time>
      </trkpt>
      <trkpt lat="42.365502202883363" lon="3.112319754436612">
        <ele>178.46000000000001</ele>
        <time>2026-04-16T08:52:37Z</time>
      </trkpt>
      <trkpt lat="42.365603540092707" lon="3.1122962012887">
        <ele>179.41999999999999</ele>
        <time>2026-04-16T08:52:46Z</time>
      </trkpt>
      <trkpt lat="42.36570730805397" lon="3.112254291772842">
        <ele>179.41999999999999</ele>
        <time>2026-04-16T08:52:55Z</time>
      </trkpt>
      <trkpt lat="42.365810656920075" lon="3.112205173820257">
        <ele>180.38</ele>
        <time>2026-04-16T08:53:04Z</time>
      </trkpt>
      <trkpt lat="42.365909898653626" lon="3.112179441377521">
        <ele>180.38</ele>
        <time>2026-04-16T08:53:12Z</time>
      </trkpt>
      <trkpt lat="42.366007631644607" lon="3.112163515761495">
        <ele>181.34999999999999</ele>
        <time>2026-04-16T08:53:20Z</time>
      </trkpt>
      <trkpt lat="42.366107627749443" lon="3.112149015069008">
        <ele>181.83000000000001</ele>
        <time>2026-04-16T08:53:29Z</time>
      </trkpt>
      <trkpt lat="42.366209300234914" lon="3.11213593930006">
        <ele>182.31</ele>
        <time>2026-04-16T08:53:38Z</time>
      </trkpt>
      <trkpt lat="42.366304099559784" lon="3.112111715599895">
        <ele>183.75</ele>
        <time>2026-04-16T08:53:47Z</time>
      </trkpt>
      <trkpt lat="42.366399904713035" lon="3.112075924873352">
        <ele>185.19</ele>
        <time>2026-04-16T08:53:56Z</time>
      </trkpt>
      <trkpt lat="42.366487327963114" lon="3.112018508836627">
        <ele>186.63</ele>
        <time>2026-04-16T08:54:06Z</time>
      </trkpt>
      <trkpt lat="42.366561340168118" lon="3.111926643177867">
        <ele>188.08000000000001</ele>
        <time>2026-04-16T08:54:15Z</time>
      </trkpt>
      <trkpt lat="42.366643734276295" lon="3.111828994005919">
        <ele>187.59</ele>
        <time>2026-04-16T08:54:24Z</time>
      </trkpt>
      <trkpt lat="42.366715986281633" lon="3.111747018992901">
        <ele>187.11000000000001</ele>
        <time>2026-04-16T08:54:32Z</time>
      </trkpt>
      <trkpt lat="42.366799805313349" lon="3.111693626269698">
        <ele>187.11000000000001</ele>
        <time>2026-04-16T08:54:40Z</time>
      </trkpt>
      <trkpt lat="42.366889994591475" lon="3.111672084778547">
        <ele>186.63</ele>
        <time>2026-04-16T08:54:48Z</time>
      </trkpt>
      <trkpt lat="42.366972807794809" lon="3.111653560772538">
        <ele>186.63</ele>
        <time>2026-04-16T08:54:56Z</time>
      </trkpt>
      <trkpt lat="42.367055369541049" lon="3.111632857471705">
        <ele>187.11000000000001</ele>
        <time>2026-04-16T08:55:04Z</time>
      </trkpt>
      <trkpt lat="42.36714924685657" lon="3.111631348729134">
        <ele>188.56</ele>
        <time>2026-04-16T08:55:13Z</time>
      </trkpt>
      <trkpt lat="42.367250248789787" lon="3.111644508317113">
        <ele>189.52000000000001</ele>
        <time>2026-04-16T08:55:22Z</time>
      </trkpt>
      <trkpt lat="42.367354100570083" lon="3.111664708703756">
        <ele>190.47999999999999</ele>
        <time>2026-04-16T08:55:31Z</time>
      </trkpt>
      <trkpt lat="42.367438590154052" lon="3.111719358712435">
        <ele>190.96000000000001</ele>
        <time>2026-04-16T08:55:40Z</time>
      </trkpt>
      <trkpt lat="42.367531042546034" lon="3.111799573525786">
        <ele>191.44</ele>
        <time>2026-04-16T08:55:49Z</time>
      </trkpt>
      <trkpt lat="42.367591811344028" lon="3.111903006210923">
        <ele>191.44</ele>
        <time>2026-04-16T08:55:57Z</time>
      </trkpt>
      <trkpt lat="42.367627015337348" lon="3.112022364512086">
        <ele>190.47999999999999</ele>
        <time>2026-04-16T08:56:05Z</time>
      </trkpt>
      <trkpt lat="42.367673199623823" lon="3.112146332859993">
        <ele>189.52000000000001</ele>
        <time>2026-04-16T08:56:13Z</time>
      </trkpt>
      <trkpt lat="42.367745200172067" lon="3.112230822443962">
        <ele>189.03999999999999</ele>
        <time>2026-04-16T08:56:21Z</time>
      </trkpt>
      <trkpt lat="42.367830276489258" lon="3.112288406118751">
        <ele>189.52000000000001</ele>
        <time>2026-04-16T08:56:29Z</time>
      </trkpt>
      <trkpt lat="42.367911329492927" lon="3.112346492707729">
        <ele>189.52000000000001</ele>
        <time>2026-04-16T08:56:37Z</time>
      </trkpt>
      <trkpt lat="42.367987269535661" lon="3.112425366416574">
        <ele>189.03999999999999</ele>
        <time>2026-04-16T08:56:45Z</time>
      </trkpt>
      <trkpt lat="42.368080308660865" lon="3.112499881535769">
        <ele>189.52000000000001</ele>
        <time>2026-04-16T08:56:54Z</time>
      </trkpt>
      <trkpt lat="42.368167312815785" lon="3.112570540979505">
        <ele>190.47999999999999</ele>
        <time>2026-04-16T08:57:03Z</time>
      </trkpt>
      <trkpt lat="42.368254568427801" lon="3.112652013078332">
        <ele>191.44</ele>
        <time>2026-04-16T08:57:12Z</time>
      </trkpt>
      <trkpt lat="42.368337130174041" lon="3.112728456035256">
        <ele>191.44</ele>
        <time>2026-04-16T08:57:21Z</time>
      </trkpt>
      <trkpt lat="42.368418518453836" lon="3.112794505432248">
        <ele>191.91999999999999</ele>
        <time>2026-04-16T08:57:30Z</time>
      </trkpt>
      <trkpt lat="42.368501666933298" lon="3.1128747202456">
        <ele>192.88</ele>
        <time>2026-04-16T08:57:40Z</time>
      </trkpt>
      <trkpt lat="42.368588419631124" lon="3.112941021099687">
        <ele>194.31999999999999</ele>
        <time>2026-04-16T08:57:50Z</time>
      </trkpt>
      <trkpt lat="42.368678273633122" lon="3.112994832918048">
        <ele>196.72999999999999</ele>
        <time>2026-04-16T08:58:01Z</time>
      </trkpt>
      <trkpt lat="42.368771396577358" lon="3.113030958920717">
        <ele>199.61000000000001</ele>
        <time>2026-04-16T08:58:13Z</time>
      </trkpt>
      <trkpt lat="42.368856808170676" lon="3.113067420199513">
        <ele>202.00999999999999</ele>
        <time>2026-04-16T08:58:27Z</time>
      </trkpt>
      <trkpt lat="42.368957977741957" lon="3.113109329715371">
        <ele>204.41999999999999</ele>
        <time>2026-04-16T08:58:41Z</time>
      </trkpt>
      <trkpt lat="42.369052357971668" lon="3.11316448263824">
        <ele>205.86000000000001</ele>
        <time>2026-04-16T08:58:53Z</time>
      </trkpt>
      <trkpt lat="42.369157634675503" lon="3.113206895068288">
        <ele>208.25999999999999</ele>
        <time>2026-04-16T08:59:06Z</time>
      </trkpt>
      <trkpt lat="42.36924204044044" lon="3.113264814019203">
        <ele>209.22</ele>
        <time>2026-04-16T08:59:16Z</time>
      </trkpt>
      <trkpt lat="42.369330888614058" lon="3.11332575045526">
        <ele>209.69999999999999</ele>
        <time>2026-04-16T08:59:25Z</time>
      </trkpt>
      <trkpt lat="42.369420323520899" lon="3.113380149006844">
        <ele>210.66999999999999</ele>
        <time>2026-04-16T08:59:34Z</time>
      </trkpt>
      <trkpt lat="42.369516883045435" lon="3.113431110978127">
        <ele>210.66999999999999</ele>
        <time>2026-04-16T08:59:44Z</time>
      </trkpt>
      <trkpt lat="42.369601540267467" lon="3.1135084759444">
        <ele>210.66999999999999</ele>
        <time>2026-04-16T08:59:53Z</time>
      </trkpt>
      <trkpt lat="42.369681419804692" lon="3.113571675494313">
        <ele>209.22</ele>
        <time>2026-04-16T09:00:02Z</time>
      </trkpt>
      <trkpt lat="42.369808992370963" lon="3.1135827396065">
        <ele>209.69999999999999</ele>
        <time>2026-04-16T09:01:38Z</time>
      </trkpt>
      <trkpt lat="42.369878562167287" lon="3.113633114844561">
        <ele>214.03</ele>
        <time>2026-04-16T09:06:08Z</time>
      </trkpt>
      <trkpt lat="42.369966236874461" lon="3.11369564384222">
        <ele>214.99000000000001</ele>
        <time>2026-04-16T09:06:18Z</time>
      </trkpt>
      <trkpt lat="42.370055168867111" lon="3.113760687410832">
        <ele>215.47</ele>
        <time>2026-04-16T09:06:28Z</time>
      </trkpt>
      <trkpt lat="42.370149800553918" lon="3.113837214186788">
        <ele>216.91</ele>
        <time>2026-04-16T09:06:39Z</time>
      </trkpt>
      <trkpt lat="42.370237139984965" lon="3.113910472020507">
        <ele>218.36000000000001</ele>
        <time>2026-04-16T09:06:54Z</time>
      </trkpt>
      <trkpt lat="42.370324647054076" lon="3.114001415669918">
        <ele>219.31999999999999</ele>
        <time>2026-04-16T09:07:04Z</time>
      </trkpt>
      <trkpt lat="42.370407963171601" lon="3.114098059013486">
        <ele>219.80000000000001</ele>
        <time>2026-04-16T09:07:13Z</time>
      </trkpt>
      <trkpt lat="42.370487423613667" lon="3.114173412322998">
        <ele>220.28</ele>
        <time>2026-04-16T09:07:21Z</time>
      </trkpt>
      <trkpt lat="42.370578367263079" lon="3.114238455891609">
        <ele>220.75999999999999</ele>
        <time>2026-04-16T09:07:30Z</time>
      </trkpt>
      <trkpt lat="42.370664281770587" lon="3.114284137263894">
        <ele>221.24000000000001</ele>
        <time>2026-04-16T09:07:38Z</time>
      </trkpt>
      <trkpt lat="42.370756817981601" lon="3.114331159740686">
        <ele>221.72</ele>
        <time>2026-04-16T09:07:46Z</time>
      </trkpt>
      <trkpt lat="42.37085597589612" lon="3.1143718957901">
        <ele>222.19999999999999</ele>
        <time>2026-04-16T09:07:55Z</time>
      </trkpt>
      <trkpt lat="42.370952786877751" lon="3.114410117268562">
        <ele>222.68000000000001</ele>
        <time>2026-04-16T09:08:03Z</time>
      </trkpt>
      <trkpt lat="42.371047167107463" lon="3.114460073411465">
        <ele>223.63999999999999</ele>
        <time>2026-04-16T09:08:11Z</time>
      </trkpt>
      <trkpt lat="42.371140290051699" lon="3.114497205242515">
        <ele>223.63999999999999</ele>
        <time>2026-04-16T09:08:19Z</time>
      </trkpt>
      <trkpt lat="42.37123659811914" lon="3.114524949342012">
        <ele>224.12</ele>
        <time>2026-04-16T09:08:27Z</time>
      </trkpt>
      <trkpt lat="42.371338522061706" lon="3.114542802795768">
        <ele>224.61000000000001</ele>
        <time>2026-04-16T09:08:36Z</time>
      </trkpt>
      <trkpt lat="42.371454359963536" lon="3.114558812230825">
        <ele>224.61000000000001</ele>
        <time>2026-04-16T09:08:45Z</time>
      </trkpt>
      <trkpt lat="42.371559888124466" lon="3.114568702876568">
        <ele>225.56999999999999</ele>
        <time>2026-04-16T09:08:54Z</time>
      </trkpt>
      <trkpt lat="42.371664745733142" lon="3.114591334015131">
        <ele>226.53</ele>
        <time>2026-04-16T09:09:03Z</time>
      </trkpt>
      <trkpt lat="42.371763065457344" lon="3.114615976810455">
        <ele>227.00999999999999</ele>
        <time>2026-04-16T09:09:12Z</time>
      </trkpt>
      <trkpt lat="42.371860044077039" lon="3.114640368148685">
        <ele>227.97</ele>
        <time>2026-04-16T09:09:21Z</time>
      </trkpt>
      <trkpt lat="42.371966997161508" lon="3.114660149440169">
        <ele>228.93000000000001</ele>
        <time>2026-04-16T09:09:30Z</time>
      </trkpt>
      <trkpt lat="42.372070429846644" lon="3.114675069227815">
        <ele>229.88999999999999</ele>
        <time>2026-04-16T09:09:39Z</time>
      </trkpt>
      <trkpt lat="42.372170006856322" lon="3.114665932953358">
        <ele>231.33000000000001</ele>
        <time>2026-04-16T09:09:49Z</time>
      </trkpt>
      <trkpt lat="42.372280983254313" lon="3.1146499235183">
        <ele>232.78</ele>
        <time>2026-04-16T09:09:58Z</time>
      </trkpt>
      <trkpt lat="42.37238734960556" lon="3.114627124741674">
        <ele>233.25999999999999</ele>
        <time>2026-04-16T09:10:07Z</time>
      </trkpt>
      <trkpt lat="42.372491285204887" lon="3.114583874121308">
        <ele>234.22</ele>
        <time>2026-04-16T09:10:16Z</time>
      </trkpt>
      <trkpt lat="42.372592454776168" lon="3.11452972702682">
        <ele>235.18000000000001</ele>
        <time>2026-04-16T09:10:25Z</time>
      </trkpt>
      <trkpt lat="42.372698988765478" lon="3.114454708993435">
        <ele>236.62</ele>
        <time>2026-04-16T09:10:36Z</time>
      </trkpt>
      <trkpt lat="42.37278213724494" lon="3.114452864974737">
        <ele>236.62</ele>
        <time>2026-04-16T09:10:46Z</time>
      </trkpt>
      <trkpt lat="42.372827902436256" lon="3.114551184698939">
        <ele>237.09999999999999</ele>
        <time>2026-04-16T09:10:56Z</time>
      </trkpt>
      <trkpt lat="42.372830417007208" lon="3.114674063399434">
        <ele>237.09999999999999</ele>
        <time>2026-04-16T09:11:04Z</time>
      </trkpt>
      <trkpt lat="42.372834356501698" lon="3.114798618480563">
        <ele>237.09999999999999</ele>
        <time>2026-04-16T09:11:13Z</time>
      </trkpt>
      <trkpt lat="42.372846929356456" lon="3.114928621798754">
        <ele>237.09999999999999</ele>
        <time>2026-04-16T09:11:22Z</time>
      </trkpt>
      <trkpt lat="42.372862435877323" lon="3.11505108140409">
        <ele>237.09999999999999</ele>
        <time>2026-04-16T09:11:30Z</time>
      </trkpt>
      <trkpt lat="42.37289504148066" lon="3.115165662020445">
        <ele>237.58000000000001</ele>
        <time>2026-04-16T09:11:38Z</time>
      </trkpt>
      <trkpt lat="42.372936950996518" lon="3.115275045856834">
        <ele>238.06</ele>
        <time>2026-04-16T09:11:46Z</time>
      </trkpt>
      <trkpt lat="42.372973496094346" lon="3.115401025861502">
        <ele>239.02000000000001</ele>
        <time>2026-04-16T09:11:55Z</time>
      </trkpt>
      <trkpt lat="42.373012723401189" lon="3.115524826571345">
        <ele>239.99000000000001</ele>
        <time>2026-04-16T09:12:04Z</time>
      </trkpt>
      <trkpt lat="42.373063769191504" lon="3.11564426869154">
        <ele>240.47</ele>
        <time>2026-04-16T09:12:15Z</time>
      </trkpt>
      <trkpt lat="42.373117245733738" lon="3.115749964490533">
        <ele>241.91</ele>
        <time>2026-04-16T09:12:23Z</time>
      </trkpt>
      <trkpt lat="42.373187737539411" lon="3.115849122405052">
        <ele>243.34999999999999</ele>
        <time>2026-04-16T09:12:32Z</time>
      </trkpt>
      <trkpt lat="42.373251188546419" lon="3.115951716899872">
        <ele>245.27000000000001</ele>
        <time>2026-04-16T09:12:41Z</time>
      </trkpt>
      <trkpt lat="42.373313046991825" lon="3.116057245060802">
        <ele>245.75</ele>
        <time>2026-04-16T09:12:50Z</time>
      </trkpt>
      <trkpt lat="42.373378593474627" lon="3.11616126447916">
        <ele>246.22999999999999</ele>
        <time>2026-04-16T09:12:59Z</time>
      </trkpt>
      <trkpt lat="42.373454114422202" lon="3.116244832053781">
        <ele>247.19999999999999</ele>
        <time>2026-04-16T09:13:08Z</time>
      </trkpt>
      <trkpt lat="42.373535754159093" lon="3.116334183141589">
        <ele>247.19999999999999</ele>
        <time>2026-04-16T09:13:17Z</time>
      </trkpt>
      <trkpt lat="42.373614879325032" lon="3.116403752937913">
        <ele>247.68000000000001</ele>
        <time>2026-04-16T09:13:26Z</time>
      </trkpt>
      <trkpt lat="42.37368855625391" lon="3.116491427645087">
        <ele>249.12</ele>
        <time>2026-04-16T09:13:35Z</time>
      </trkpt>
      <trkpt lat="42.373772375285625" lon="3.116581281647086">
        <ele>250.56</ele>
        <time>2026-04-16T09:13:44Z</time>
      </trkpt>
      <trkpt lat="42.373855272307992" lon="3.116643726825714">
        <ele>252</ele>
        <time>2026-04-16T09:13:53Z</time>
      </trkpt>
      <trkpt lat="42.373940432444215" lon="3.116722516715527">
        <ele>252.47999999999999</ele>
        <time>2026-04-16T09:14:02Z</time>
      </trkpt>
      <trkpt lat="42.374020898714662" lon="3.116792924702168">
        <ele>253.93000000000001</ele>
        <time>2026-04-16T09:14:11Z</time>
      </trkpt>
      <trkpt lat="42.374108154326677" lon="3.116861991584301">
        <ele>254.88999999999999</ele>
        <time>2026-04-16T09:14:20Z</time>
      </trkpt>
      <trkpt lat="42.374191554263234" lon="3.11693524941802">
        <ele>256.81</ele>
        <time>2026-04-16T09:14:29Z</time>
      </trkpt>
      <trkpt lat="42.374277804046869" lon="3.11700850725174">
        <ele>258.25</ele>
        <time>2026-04-16T09:14:38Z</time>
      </trkpt>
      <trkpt lat="42.37436237744987" lon="3.117078160867095">
        <ele>258.73000000000002</ele>
        <time>2026-04-16T09:14:47Z</time>
      </trkpt>
      <trkpt lat="42.374445190653205" lon="3.117143791168928">
        <ele>258.73000000000002</ele>
        <time>2026-04-16T09:14:56Z</time>
      </trkpt>
      <trkpt lat="42.374533535912633" lon="3.117200620472431">
        <ele>260.64999999999998</ele>
        <time>2026-04-16T09:15:05Z</time>
      </trkpt>
      <trkpt lat="42.3746233060956" lon="3.117251666262746">
        <ele>263.06</ele>
        <time>2026-04-16T09:15:14Z</time>
      </trkpt>
      <trkpt lat="42.37471223808825" lon="3.117303801700473">
        <ele>263.54000000000002</ele>
        <time>2026-04-16T09:15:23Z</time>
      </trkpt>
      <trkpt lat="42.374803349375725" lon="3.117346800863743">
        <ele>264.5</ele>
        <time>2026-04-16T09:15:32Z</time>
      </trkpt>
      <trkpt lat="42.374900663271546" lon="3.117387872189283">
        <ele>265.45999999999998</ele>
        <time>2026-04-16T09:15:41Z</time>
      </trkpt>
      <trkpt lat="42.374990936368704" lon="3.117427937686443">
        <ele>265.94</ele>
        <time>2026-04-16T09:15:50Z</time>
      </trkpt>
      <trkpt lat="42.375092357397079" lon="3.117487281560898">
        <ele>266.89999999999998</ele>
        <time>2026-04-16T09:16:02Z</time>
      </trkpt>
      <trkpt lat="42.375187408179045" lon="3.117550564929843">
        <ele>268.35000000000002</ele>
        <time>2026-04-16T09:16:12Z</time>
      </trkpt>
      <trkpt lat="42.375280531123281" lon="3.11759976670146">
        <ele>270.26999999999998</ele>
        <time>2026-04-16T09:16:21Z</time>
      </trkpt>
      <trkpt lat="42.375362254679203" lon="3.117659110575914">
        <ele>271.70999999999998</ele>
        <time>2026-04-16T09:16:30Z</time>
      </trkpt>
      <trkpt lat="42.375431824475527" lon="3.117745611816645">
        <ele>272.67000000000002</ele>
        <time>2026-04-16T09:16:39Z</time>
      </trkpt>
      <trkpt lat="42.375496448948979" lon="3.117830017581582">
        <ele>273.63</ele>
        <time>2026-04-16T09:16:48Z</time>
      </trkpt>
      <trkpt lat="42.375543219968677" lon="3.117940491065383">
        <ele>275.06999999999999</ele>
        <time>2026-04-16T09:16:57Z</time>
      </trkpt>
      <trkpt lat="42.375587895512581" lon="3.118051718920469">
        <ele>276.04000000000002</ele>
        <time>2026-04-16T09:17:09Z</time>
      </trkpt>
      <trkpt lat="42.375649753957987" lon="3.118146434426308">
        <ele>277.48000000000002</ele>
        <time>2026-04-16T09:17:18Z</time>
      </trkpt>
      <trkpt lat="42.375718653202057" lon="3.118253638967872">
        <ele>278.44</ele>
        <time>2026-04-16T09:17:28Z</time>
      </trkpt>
      <trkpt lat="42.375776069238782" lon="3.118369309231639">
        <ele>280.36000000000001</ele>
        <time>2026-04-16T09:17:40Z</time>
      </trkpt>
      <trkpt lat="42.375863576307893" lon="3.118455978110433">
        <ele>282.76999999999998</ele>
        <time>2026-04-16T09:18:27Z</time>
      </trkpt>
      <trkpt lat="42.375911856070161" lon="3.118353048339486">
        <ele>284.69</ele>
        <time>2026-04-16T09:18:37Z</time>
      </trkpt>
      <trkpt lat="42.375888805836439" lon="3.118214495480061">
        <ele>286.61000000000001</ele>
        <time>2026-04-16T09:18:47Z</time>
      </trkpt>
      <trkpt lat="42.37587514333427" lon="3.1180864199996">
        <ele>287.56999999999999</ele>
        <time>2026-04-16T09:18:56Z</time>
      </trkpt>
      <trkpt lat="42.375870198011398" lon="3.11796328984201">
        <ele>288.05000000000001</ele>
        <time>2026-04-16T09:19:06Z</time>
      </trkpt>
      <trkpt lat="42.375880340114236" lon="3.117817109450698">
        <ele>289.97000000000003</ele>
        <time>2026-04-16T09:19:17Z</time>
      </trkpt>
      <trkpt lat="42.375907832756639" lon="3.117690123617649">
        <ele>291.89999999999998</ele>
        <time>2026-04-16T09:19:28Z</time>
      </trkpt>
      <trkpt lat="42.375940857455134" lon="3.117557941004634">
        <ele>294.30000000000001</ele>
        <time>2026-04-16T09:19:40Z</time>
      </trkpt>
      <trkpt lat="42.375980336219072" lon="3.117436990141869">
        <ele>295.25999999999999</ele>
        <time>2026-04-16T09:19:50Z</time>
      </trkpt>
      <trkpt lat="42.376040099188685" lon="3.117332719266415">
        <ele>297.18000000000001</ele>
        <time>2026-04-16T09:20:03Z</time>
      </trkpt>
      <trkpt lat="42.376098018139601" lon="3.117227191105485">
        <ele>298.63</ele>
        <time>2026-04-16T09:20:21Z</time>
      </trkpt>
      <trkpt lat="42.37600564956665" lon="3.117137420922518">
        <ele>301.02999999999997</ele>
        <time>2026-04-16T09:23:23Z</time>
      </trkpt>
      <trkpt lat="42.375928284600377" lon="3.117047315463424">
        <ele>302.47000000000003</ele>
        <time>2026-04-16T09:23:34Z</time>
      </trkpt>
      <trkpt lat="42.375849243253469" lon="3.116974057629705">
        <ele>303.91000000000003</ele>
        <time>2026-04-16T09:23:45Z</time>
      </trkpt>
      <trkpt lat="42.375783612951636" lon="3.116875402629376">
        <ele>304.38999999999999</ele>
        <time>2026-04-16T09:23:56Z</time>
      </trkpt>
      <trkpt lat="42.375724017620087" lon="3.116780519485474">
        <ele>307.27999999999997</ele>
        <time>2026-04-16T09:24:08Z</time>
      </trkpt>
      <trkpt lat="42.375674983486533" lon="3.116672309115529">
        <ele>308.24000000000001</ele>
        <time>2026-04-16T09:24:20Z</time>
      </trkpt>
      <trkpt lat="42.375608682632446" lon="3.11658002436161">
        <ele>310.63999999999999</ele>
        <time>2026-04-16T09:24:34Z</time>
      </trkpt>
      <trkpt lat="42.37553559243679" lon="3.116499558091164">
        <ele>314.00999999999999</ele>
        <time>2026-04-16T09:24:49Z</time>
      </trkpt>
      <trkpt lat="42.375477254390717" lon="3.116404674947262">
        <ele>316.88999999999999</ele>
        <time>2026-04-16T09:25:08Z</time>
      </trkpt>
      <trkpt lat="42.375409947708249" lon="3.116318257525563">
        <ele>321.69999999999999</ele>
        <time>2026-04-16T09:25:27Z</time>
      </trkpt>
      <trkpt lat="42.375337276607752" lon="3.116198312491179">
        <ele>325.06</ele>
        <time>2026-04-16T09:25:49Z</time>
      </trkpt>
      <trkpt lat="42.37526242621243" lon="3.116148272529244">
        <ele>329.38999999999999</ele>
        <time>2026-04-16T09:26:08Z</time>
      </trkpt>
      <trkpt lat="42.375182379037142" lon="3.116091024130583">
        <ele>332.26999999999998</ele>
        <time>2026-04-16T09:26:24Z</time>
      </trkpt>
      <trkpt lat="42.375095039606094" lon="3.116052467375994">
        <ele>334.19999999999999</ele>
        <time>2026-04-16T09:26:47Z</time>
      </trkpt>
      <trkpt lat="42.375067798420787" lon="3.115936294198036">
        <ele>337.56</ele>
        <time>2026-04-16T09:27:01Z</time>
      </trkpt>
      <trkpt lat="42.37503225915134" lon="3.115775529295206">
        <ele>339</ele>
        <time>2026-04-16T09:27:25Z</time>
      </trkpt>
      <trkpt lat="42.374995797872543" lon="3.115657344460487">
        <ele>341.41000000000003</ele>
        <time>2026-04-16T09:27:38Z</time>
      </trkpt>
      <trkpt lat="42.374938800930977" lon="3.115544021129608">
        <ele>343.32999999999998</ele>
        <time>2026-04-16T09:27:52Z</time>
      </trkpt>
      <trkpt lat="42.374891024082899" lon="3.115394236519933">
        <ele>342.85000000000002</ele>
        <time>2026-04-16T09:28:10Z</time>
      </trkpt>
      <trkpt lat="42.37486713565886" lon="3.115258617326617">
        <ele>342.85000000000002</ele>
        <time>2026-04-16T09:28:19Z</time>
      </trkpt>
      <trkpt lat="42.374825812876225" lon="3.115131799131632">
        <ele>346.20999999999998</ele>
        <time>2026-04-16T09:28:30Z</time>
      </trkpt>
      <trkpt lat="42.374786250293255" lon="3.115002801641822">
        <ele>347.64999999999998</ele>
        <time>2026-04-16T09:28:41Z</time>
      </trkpt>
      <trkpt lat="42.37473419867456" lon="3.114875480532646">
        <ele>346.69</ele>
        <time>2026-04-16T09:28:52Z</time>
      </trkpt>
      <trkpt lat="42.37470050342381" lon="3.114732904359698">
        <ele>348.62</ele>
        <time>2026-04-16T09:29:03Z</time>
      </trkpt>
      <trkpt lat="42.3746751062572" lon="3.114592591300607">
        <ele>350.54000000000002</ele>
        <time>2026-04-16T09:29:15Z</time>
      </trkpt>
      <trkpt lat="42.374654822051525" lon="3.114454792812467">
        <ele>351.5</ele>
        <time>2026-04-16T09:29:28Z</time>
      </trkpt>
      <trkpt lat="42.37463160417974" lon="3.114323699846864">
        <ele>353.89999999999998</ele>
        <time>2026-04-16T09:29:41Z</time>
      </trkpt>
      <trkpt lat="42.374582402408123" lon="3.114217333495617">
        <ele>356.79000000000002</ele>
        <time>2026-04-16T09:29:54Z</time>
      </trkpt>
      <trkpt lat="42.374559938907623" lon="3.114095292985439">
        <ele>359.19</ele>
        <time>2026-04-16T09:30:07Z</time>
      </trkpt>
      <trkpt lat="42.374543342739344" lon="3.113972917199135">
        <ele>360.14999999999998</ele>
        <time>2026-04-16T09:30:20Z</time>
      </trkpt>
      <trkpt lat="42.374538816511631" lon="3.113842327147722">
        <ele>363.04000000000002</ele>
        <time>2026-04-16T09:30:36Z</time>
      </trkpt>
      <trkpt lat="42.374535715207458" lon="3.113715760409832">
        <ele>367.36000000000001</ele>
        <time>2026-04-16T09:30:51Z</time>
      </trkpt>
      <trkpt lat="42.374549210071564" lon="3.113576956093311">
        <ele>370.24000000000001</ele>
        <time>2026-04-16T09:31:08Z</time>
      </trkpt>
      <trkpt lat="42.37456270493567" lon="3.11344594694674">
        <ele>374.08999999999997</ele>
        <time>2026-04-16T09:31:22Z</time>
      </trkpt>
      <trkpt lat="42.374591873958707" lon="3.113312507048249">
        <ele>374.08999999999997</ele>
        <time>2026-04-16T09:31:38Z</time>
      </trkpt>
      <trkpt lat="42.374587766826153" lon="3.113188957795501">
        <ele>377.44999999999999</ele>
        <time>2026-04-16T09:31:50Z</time>
      </trkpt>
      <trkpt lat="42.374588856473565" lon="3.113053338602185">
        <ele>378.89999999999998</ele>
        <time>2026-04-16T09:32:01Z</time>
      </trkpt>
      <trkpt lat="42.374568656086922" lon="3.112935991957784">
        <ele>380.33999999999997</ele>
        <time>2026-04-16T09:32:13Z</time>
      </trkpt>
      <trkpt lat="42.374559100717306" lon="3.112805234268308">
        <ele>381.30000000000001</ele>
        <time>2026-04-16T09:32:27Z</time>
      </trkpt>
      <trkpt lat="42.374559016898274" lon="3.112679505720735">
        <ele>384.18000000000001</ele>
        <time>2026-04-16T09:32:42Z</time>
      </trkpt>
      <trkpt lat="42.374541079625487" lon="3.112553860992193">
        <ele>386.58999999999997</ele>
        <time>2026-04-16T09:32:56Z</time>
      </trkpt>
      <trkpt lat="42.374527165666223" lon="3.112424444407225">
        <ele>390.91000000000003</ele>
        <time>2026-04-16T09:33:09Z</time>
      </trkpt>
      <trkpt lat="42.374497074633837" lon="3.112297290936112">
        <ele>389.94999999999999</ele>
        <time>2026-04-16T09:33:20Z</time>
      </trkpt>
      <trkpt lat="42.374470084905624" lon="3.112166617065668">
        <ele>390.43000000000001</ele>
        <time>2026-04-16T09:33:30Z</time>
      </trkpt>
      <trkpt lat="42.374449549242854" lon="3.112032087519765">
        <ele>393.31999999999999</ele>
        <time>2026-04-16T09:33:42Z</time>
      </trkpt>
      <trkpt lat="42.374446196481586" lon="3.111888505518436">
        <ele>397.16000000000003</ele>
        <time>2026-04-16T09:34:01Z</time>
      </trkpt>
      <trkpt lat="42.374399676918983" lon="3.111749868839979">
        <ele>396.68000000000001</ele>
        <time>2026-04-16T09:34:41Z</time>
      </trkpt>
      <trkpt lat="42.374364053830504" lon="3.111615674570203">
        <ele>399.07999999999998</ele>
        <time>2026-04-16T09:35:49Z</time>
      </trkpt>
      <trkpt lat="42.374395905062556" lon="3.11167074367404">
        <ele>397.63999999999999</ele>
        <time>2026-04-16T09:36:46Z</time>
      </trkpt>
      <trkpt lat="42.374395569786429" lon="3.11164434067905">
        <ele>400.52999999999997</ele>
        <time>2026-04-16T09:41:09Z</time>
      </trkpt>
      <trkpt lat="42.374437479302287" lon="3.111542332917452">
        <ele>397.16000000000003</ele>
        <time>2026-04-16T09:41:23Z</time>
      </trkpt>
      <trkpt lat="42.374474611133337" lon="3.111411659047008">
        <ele>393.80000000000001</ele>
        <time>2026-04-16T09:41:38Z</time>
      </trkpt>
      <trkpt lat="42.374505791813135" lon="3.111290959641337">
        <ele>390.43000000000001</ele>
        <time>2026-04-16T09:41:52Z</time>
      </trkpt>
      <trkpt lat="42.3745421692729" lon="3.111157352104783">
        <ele>388.99000000000001</ele>
        <time>2026-04-16T09:42:07Z</time>
      </trkpt>
      <trkpt lat="42.374567147344351" lon="3.111029779538512">
        <ele>388.02999999999997</ele>
        <time>2026-04-16T09:42:23Z</time>
      </trkpt>
      <trkpt lat="42.374680554494262" lon="3.11093145981431">
        <ele>383.22000000000003</ele>
        <time>2026-04-16T09:42:45Z</time>
      </trkpt>
      <trkpt lat="42.374749286100268" lon="3.110829703509808">
        <ele>378.89999999999998</ele>
        <time>2026-04-16T09:43:07Z</time>
      </trkpt>
      <trkpt lat="42.374792285263538" lon="3.110709171742201">
        <ele>377.44999999999999</ele>
        <time>2026-04-16T09:43:21Z</time>
      </trkpt>
      <trkpt lat="42.374833608046174" lon="3.110602386295795">
        <ele>374.08999999999997</ele>
        <time>2026-04-16T09:43:45Z</time>
      </trkpt>
      <trkpt lat="42.37490912899375" lon="3.110517309978604">
        <ele>372.17000000000002</ele>
        <time>2026-04-16T09:43:58Z</time>
      </trkpt>
      <trkpt lat="42.374952547252178" lon="3.110378170385957">
        <ele>368.80000000000001</ele>
        <time>2026-04-16T09:44:18Z</time>
      </trkpt>
      <trkpt lat="42.375034103170037" lon="3.110293764621019">
        <ele>366.39999999999998</ele>
        <time>2026-04-16T09:44:34Z</time>
      </trkpt>
      <trkpt lat="42.375120269134641" lon="3.110217154026032">
        <ele>364.95999999999998</ele>
        <time>2026-04-16T09:44:46Z</time>
      </trkpt>
      <trkpt lat="42.375197047367692" lon="3.110152278095484">
        <ele>363.51999999999998</ele>
        <time>2026-04-16T09:44:57Z</time>
      </trkpt>
      <trkpt lat="42.375256977975368" lon="3.110058652237058">
        <ele>361.58999999999997</ele>
        <time>2026-04-16T09:45:08Z</time>
      </trkpt>
      <trkpt lat="42.375323278829455" lon="3.109979946166277">
        <ele>361.11000000000001</ele>
        <time>2026-04-16T09:45:17Z</time>
      </trkpt>
      <trkpt lat="42.375271813943982" lon="3.109936192631722">
        <ele>360.14999999999998</ele>
        <time>2026-04-16T09:45:30Z</time>
      </trkpt>
      <trkpt lat="42.375168884173036" lon="3.109949016943574">
        <ele>359.19</ele>
        <time>2026-04-16T09:45:41Z</time>
      </trkpt>
      <trkpt lat="42.375074503943324" lon="3.109968462958932">
        <ele>357.26999999999998</ele>
        <time>2026-04-16T09:45:54Z</time>
      </trkpt>
      <trkpt lat="42.374982386827469" lon="3.110012551769614">
        <ele>356.79000000000002</ele>
        <time>2026-04-16T09:46:03Z</time>
      </trkpt>
      <trkpt lat="42.374887755140662" lon="3.110033506527543">
        <ele>356.31</ele>
        <time>2026-04-16T09:46:13Z</time>
      </trkpt>
      <trkpt lat="42.374800583347678" lon="3.110058316960931">
        <ele>356.31</ele>
        <time>2026-04-16T09:46:22Z</time>
      </trkpt>
      <trkpt lat="42.374704275280237" lon="3.110066866502166">
        <ele>357.26999999999998</ele>
        <time>2026-04-16T09:46:32Z</time>
      </trkpt>
      <trkpt lat="42.374602854251862" lon="3.110080948099494">
        <ele>357.26999999999998</ele>
        <time>2026-04-16T09:46:42Z</time>
      </trkpt>
      <trkpt lat="42.374511826783419" lon="3.110100058838725">
        <ele>357.26999999999998</ele>
        <time>2026-04-16T09:46:53Z</time>
      </trkpt>
      <trkpt lat="42.37441660836339" lon="3.110109781846404">
        <ele>357.26999999999998</ele>
        <time>2026-04-16T09:47:05Z</time>
      </trkpt>
      <trkpt lat="42.374313846230507" lon="3.110122103244066">
        <ele>355.82999999999998</ele>
        <time>2026-04-16T09:47:18Z</time>
      </trkpt>
      <trkpt lat="42.374228937551379" lon="3.11019653454423">
        <ele>355.82999999999998</ele>
        <time>2026-04-16T09:47:28Z</time>
      </trkpt>
      <trkpt lat="42.374147968366742" lon="3.110264344140887">
        <ele>355.33999999999997</ele>
        <time>2026-04-16T09:47:38Z</time>
      </trkpt>
      <trkpt lat="42.374078901484609" lon="3.110347660258412">
        <ele>353.42000000000002</ele>
        <time>2026-04-16T09:47:52Z</time>
      </trkpt>
      <trkpt lat="42.374007571488619" lon="3.110429970547557">
        <ele>352.45999999999998</ele>
        <time>2026-04-16T09:48:05Z</time>
      </trkpt>
      <trkpt lat="42.373918471857905" lon="3.11050339601934">
        <ele>351.5</ele>
        <time>2026-04-16T09:48:19Z</time>
      </trkpt>
      <trkpt lat="42.37383465282619" lon="3.1105762347579">
        <ele>350.06</ele>
        <time>2026-04-16T09:48:35Z</time>
      </trkpt>
      <trkpt lat="42.373747900128365" lon="3.110664831474423">
        <ele>349.10000000000002</ele>
        <time>2026-04-16T09:48:47Z</time>
      </trkpt>
      <trkpt lat="42.373671205714345" lon="3.110750326886773">
        <ele>349.10000000000002</ele>
        <time>2026-04-16T09:48:58Z</time>
      </trkpt>
      <trkpt lat="42.373568695038557" lon="3.110797600820661">
        <ele>348.13</ele>
        <time>2026-04-16T09:49:11Z</time>
      </trkpt>
      <trkpt lat="42.373525444418192" lon="3.110892232507467">
        <ele>347.17000000000002</ele>
        <time>2026-04-16T09:49:25Z</time>
      </trkpt>
      <trkpt lat="42.373434500768781" lon="3.110934812575579">
        <ele>346.20999999999998</ele>
        <time>2026-04-16T09:49:37Z</time>
      </trkpt>
      <trkpt lat="42.37334749661386" lon="3.110925676301122">
        <ele>348.13</ele>
        <time>2026-04-16T09:49:52Z</time>
      </trkpt>
      <trkpt lat="42.373262168839574" lon="3.110926849767566">
        <ele>348.13</ele>
        <time>2026-04-16T09:50:04Z</time>
      </trkpt>
      <trkpt lat="42.373151779174805" lon="3.110931040719152">
        <ele>348.13</ele>
        <time>2026-04-16T09:50:17Z</time>
      </trkpt>
      <trkpt lat="42.373043652623892" lon="3.110926430672407">
        <ele>346.20999999999998</ele>
        <time>2026-04-16T09:50:32Z</time>
      </trkpt>
      <trkpt lat="42.372946003451943" lon="3.110863901674748">
        <ele>343.81</ele>
        <time>2026-04-16T09:50:45Z</time>
      </trkpt>
      <trkpt lat="42.372846091166139" lon="3.110835654661059">
        <ele>342.37</ele>
        <time>2026-04-16T09:50:57Z</time>
      </trkpt>
      <trkpt lat="42.372770486399531" lon="3.110900698229671">
        <ele>340.92000000000002</ele>
        <time>2026-04-16T09:51:18Z</time>
      </trkpt>
      <trkpt lat="42.372719356790185" lon="3.111005052924156">
        <ele>339.48000000000002</ele>
        <time>2026-04-16T09:51:37Z</time>
      </trkpt>
      <trkpt lat="42.37265707924962" lon="3.11110052280128">
        <ele>338.04000000000002</ele>
        <time>2026-04-16T09:52:00Z</time>
      </trkpt>
      <trkpt lat="42.372621120885015" lon="3.111219210550189">
        <ele>337.07999999999998</ele>
        <time>2026-04-16T09:52:11Z</time>
      </trkpt>
      <trkpt lat="42.372589437291026" lon="3.111334713175893">
        <ele>336.12</ele>
        <time>2026-04-16T09:52:22Z</time>
      </trkpt>
      <trkpt lat="42.37254518084228" lon="3.111444683745503">
        <ele>334.19999999999999</ele>
        <time>2026-04-16T09:52:35Z</time>
      </trkpt>
      <trkpt lat="42.372504444792867" lon="3.111563874408603">
        <ele>333.23000000000002</ele>
        <time>2026-04-16T09:52:51Z</time>
      </trkpt>
      <trkpt lat="42.3724474478513" lon="3.111663954332471">
        <ele>330.35000000000002</ele>
        <time>2026-04-16T09:53:06Z</time>
      </trkpt>
      <trkpt lat="42.372383074834943" lon="3.111752048134804">
        <ele>327.94999999999999</ele>
        <time>2026-04-16T09:53:30Z</time>
      </trkpt>
      <trkpt lat="42.372326664626598" lon="3.111849278211594">
        <ele>325.06</ele>
        <time>2026-04-16T09:53:48Z</time>
      </trkpt>
      <trkpt lat="42.372270589694381" lon="3.111933181062341">
        <ele>322.66000000000003</ele>
        <time>2026-04-16T09:54:03Z</time>
      </trkpt>
      <trkpt lat="42.372222980484366" lon="3.112047594040632">
        <ele>320.25999999999999</ele>
        <time>2026-04-16T09:54:18Z</time>
      </trkpt>
      <trkpt lat="42.372188363224268" lon="3.112159911543131">
        <ele>318.32999999999998</ele>
        <time>2026-04-16T09:54:35Z</time>
      </trkpt>
      <trkpt lat="42.372133461758494" lon="3.112246915698052">
        <ele>316.41000000000003</ele>
        <time>2026-04-16T09:54:49Z</time>
      </trkpt>
      <trkpt lat="42.372099766507745" lon="3.112351186573505">
        <ele>314.00999999999999</ele>
        <time>2026-04-16T09:55:00Z</time>
      </trkpt>
      <trkpt lat="42.372085601091385" lon="3.112475322559476">
        <ele>313.05000000000001</ele>
        <time>2026-04-16T09:55:15Z</time>
      </trkpt>
      <trkpt lat="42.372079147025943" lon="3.112600715830922">
        <ele>311.12</ele>
        <time>2026-04-16T09:55:32Z</time>
      </trkpt>
      <trkpt lat="42.372061461210251" lon="3.112698365002871">
        <ele>308.72000000000003</ele>
        <time>2026-04-16T09:56:06Z</time>
      </trkpt>
      <trkpt lat="42.37205215729773" lon="3.112787380814552">
        <ele>304.88</ele>
        <time>2026-04-16T09:56:36Z</time>
      </trkpt>
      <trkpt lat="42.372001949697733" lon="3.112846054136753">
        <ele>301.02999999999997</ele>
        <time>2026-04-16T09:57:05Z</time>
      </trkpt>
      <trkpt lat="42.371926680207253" lon="3.112869439646602">
        <ele>297.67000000000002</ele>
        <time>2026-04-16T09:57:22Z</time>
      </trkpt>
      <trkpt lat="42.371827522292733" lon="3.11286105774343">
        <ele>294.77999999999997</ele>
        <time>2026-04-16T09:57:45Z</time>
      </trkpt>
      <trkpt lat="42.371762478724122" lon="3.112942362204194">
        <ele>290.45999999999998</ele>
        <time>2026-04-16T09:57:59Z</time>
      </trkpt>
      <trkpt lat="42.371701039373875" lon="3.113003885373473">
        <ele>287.08999999999997</ele>
        <time>2026-04-16T09:58:12Z</time>
      </trkpt>
      <trkpt lat="42.371621327474713" lon="3.113069348037243">
        <ele>283.25</ele>
        <time>2026-04-16T09:58:34Z</time>
      </trkpt>
      <trkpt lat="42.371547650545835" lon="3.113135732710362">
        <ele>279.39999999999998</ele>
        <time>2026-04-16T09:58:49Z</time>
      </trkpt>
      <trkpt lat="42.371460814028978" lon="3.113149311393499">
        <ele>276.51999999999998</ele>
        <time>2026-04-16T09:58:59Z</time>
      </trkpt>
      <trkpt lat="42.371358470991254" lon="3.113180659711361">
        <ele>273.63</ele>
        <time>2026-04-16T09:59:11Z</time>
      </trkpt>
      <trkpt lat="42.371265264227986" lon="3.113203961402178">
        <ele>271.70999999999998</ele>
        <time>2026-04-16T09:59:23Z</time>
      </trkpt>
      <trkpt lat="42.371174152940512" lon="3.113249642774463">
        <ele>268.82999999999998</ele>
        <time>2026-04-16T09:59:36Z</time>
      </trkpt>
      <trkpt lat="42.371094524860382" lon="3.113322230055928">
        <ele>265.45999999999998</ele>
        <time>2026-04-16T09:59:49Z</time>
      </trkpt>
      <trkpt lat="42.371002659201622" lon="3.113361541181803">
        <ele>263.06</ele>
        <time>2026-04-16T10:00:00Z</time>
      </trkpt>
      <trkpt lat="42.370911547914147" lon="3.113418454304338">
        <ele>259.69</ele>
        <time>2026-04-16T10:00:11Z</time>
      </trkpt>
      <trkpt lat="42.370820604264736" lon="3.113449802622199">
        <ele>256.81</ele>
        <time>2026-04-16T10:00:23Z</time>
      </trkpt>
      <trkpt lat="42.370730666443706" lon="3.11347721144557">
        <ele>253.44</ele>
        <time>2026-04-16T10:00:35Z</time>
      </trkpt>
      <trkpt lat="42.370643578469753" lon="3.113471176475287">
        <ele>250.08000000000001</ele>
        <time>2026-04-16T10:00:48Z</time>
      </trkpt>
      <trkpt lat="42.370544839650393" lon="3.113512163981795">
        <ele>247.19999999999999</ele>
        <time>2026-04-16T10:01:01Z</time>
      </trkpt>
      <trkpt lat="42.370453141629696" lon="3.113530436530709">
        <ele>243.83000000000001</ele>
        <time>2026-04-16T10:01:16Z</time>
      </trkpt>
      <trkpt lat="42.370361192151904" lon="3.113557677716017">
        <ele>240.94999999999999</ele>
        <time>2026-04-16T10:01:27Z</time>
      </trkpt>
      <trkpt lat="42.370267901569605" lon="3.113590702414513">
        <ele>238.06</ele>
        <time>2026-04-16T10:01:39Z</time>
      </trkpt>
      <trkpt lat="42.370168156921864" lon="3.113588690757752">
        <ele>234.69999999999999</ele>
        <time>2026-04-16T10:01:54Z</time>
      </trkpt>
      <trkpt lat="42.370065730065107" lon="3.113582236692309">
        <ele>232.30000000000001</ele>
        <time>2026-04-16T10:02:05Z</time>
      </trkpt>
      <trkpt lat="42.369966907426715" lon="3.113620039075613">
        <ele>231.33000000000001</ele>
        <time>2026-04-16T10:02:14Z</time>
      </trkpt>
      <trkpt lat="42.369872611016035" lon="3.113607969135046">
        <ele>229.88999999999999</ele>
        <time>2026-04-16T10:02:24Z</time>
      </trkpt>
      <trkpt lat="42.369815027341247" lon="3.113523898646236">
        <ele>228.44999999999999</ele>
        <time>2026-04-16T10:02:36Z</time>
      </trkpt>
      <trkpt lat="42.369863810017705" lon="3.113439325243235">
        <ele>227.97</ele>
        <time>2026-04-16T10:04:29Z</time>
      </trkpt>
      <trkpt lat="42.369920136407018" lon="3.113330528140068">
        <ele>228.44999999999999</ele>
        <time>2026-04-16T10:04:41Z</time>
      </trkpt>
      <trkpt lat="42.369967410340905" lon="3.113219803199172">
        <ele>228.93000000000001</ele>
        <time>2026-04-16T10:04:50Z</time>
      </trkpt>
      <trkpt lat="42.370007811114192" lon="3.113114107400179">
        <ele>229.41</ele>
        <time>2026-04-16T10:04:59Z</time>
      </trkpt>
      <trkpt lat="42.370051480829716" lon="3.113003885373473">
        <ele>229.88999999999999</ele>
        <time>2026-04-16T10:05:08Z</time>
      </trkpt>
      <trkpt lat="42.370102778077126" lon="3.112884191796184">
        <ele>230.37</ele>
        <time>2026-04-16T10:05:17Z</time>
      </trkpt>
      <trkpt lat="42.370149716734886" lon="3.112759385257959">
        <ele>229.41</ele>
        <time>2026-04-16T10:05:26Z</time>
      </trkpt>
      <trkpt lat="42.370169581845403" lon="3.112623849883676">
        <ele>227.00999999999999</ele>
        <time>2026-04-16T10:05:35Z</time>
      </trkpt>
      <trkpt lat="42.370184753090143" lon="3.112488985061646">
        <ele>227.49000000000001</ele>
        <time>2026-04-16T10:05:44Z</time>
      </trkpt>
      <trkpt lat="42.37021685577929" lon="3.112364429980516">
        <ele>228.44999999999999</ele>
        <time>2026-04-16T10:05:52Z</time>
      </trkpt>
      <trkpt lat="42.370259519666433" lon="3.112242976203561">
        <ele>227.49000000000001</ele>
        <time>2026-04-16T10:06:00Z</time>
      </trkpt>
      <trkpt lat="42.370301596820354" lon="3.112120013684034">
        <ele>227.49000000000001</ele>
        <time>2026-04-16T10:06:08Z</time>
      </trkpt>
      <trkpt lat="42.370360270142555" lon="3.112014653161168">
        <ele>228.44999999999999</ele>
        <time>2026-04-16T10:06:16Z</time>
      </trkpt>
      <trkpt lat="42.370438473299146" lon="3.111911555752158">
        <ele>228.93000000000001</ele>
        <time>2026-04-16T10:06:25Z</time>
      </trkpt>
      <trkpt lat="42.370518939569592" lon="3.111813152208924">
        <ele>228.93000000000001</ele>
        <time>2026-04-16T10:06:34Z</time>
      </trkpt>
      <trkpt lat="42.370604015886784" lon="3.111713994294405">
        <ele>228.93000000000001</ele>
        <time>2026-04-16T10:06:42Z</time>
      </trkpt>
      <trkpt lat="42.370671490207314" lon="3.111602934077382">
        <ele>228.93000000000001</ele>
        <time>2026-04-16T10:06:50Z</time>
      </trkpt>
      <trkpt lat="42.370667969807982" lon="3.111463459208608">
        <ele>228.93000000000001</ele>
        <time>2026-04-16T10:06:59Z</time>
      </trkpt>
      <trkpt lat="42.370687834918499" lon="3.111333874985576">
        <ele>227.49000000000001</ele>
        <time>2026-04-16T10:07:07Z</time>
      </trkpt>
      <trkpt lat="42.370671238750219" lon="3.111178390681744">
        <ele>227.49000000000001</ele>
        <time>2026-04-16T10:07:15Z</time>
      </trkpt>
      <trkpt lat="42.370651038363576" lon="3.111043944954872">
        <ele>227.49000000000001</ele>
        <time>2026-04-16T10:07:23Z</time>
      </trkpt>
      <trkpt lat="42.37064684741199" lon="3.110916372388601">
        <ele>227.49000000000001</ele>
        <time>2026-04-16T10:07:34Z</time>
      </trkpt>
      <trkpt lat="42.370645254850388" lon="3.110779412090778">
        <ele>227.49000000000001</ele>
        <time>2026-04-16T10:07:43Z</time>
      </trkpt>
      <trkpt lat="42.370657911524177" lon="3.110651085153222">
        <ele>227.49000000000001</ele>
        <time>2026-04-16T10:07:52Z</time>
      </trkpt>
      <trkpt lat="42.370668053627014" lon="3.110520662739873">
        <ele>227.49000000000001</ele>
        <time>2026-04-16T10:08:00Z</time>
      </trkpt>
      <trkpt lat="42.370697390288115" lon="3.110386719927192">
        <ele>228.44999999999999</ele>
        <time>2026-04-16T10:08:09Z</time>
      </trkpt>
      <trkpt lat="42.370735947042704" lon="3.11025470495224">
        <ele>228.93000000000001</ele>
        <time>2026-04-16T10:08:18Z</time>
      </trkpt>
      <trkpt lat="42.370779952034354" lon="3.110122522339225">
        <ele>228.93000000000001</ele>
        <time>2026-04-16T10:08:27Z</time>
      </trkpt>
      <trkpt lat="42.370792608708143" lon="3.109999056905508">
        <ele>228.93000000000001</ele>
        <time>2026-04-16T10:08:35Z</time>
      </trkpt>
      <trkpt lat="42.370803086087108" lon="3.109868718311191">
        <ele>228.93000000000001</ele>
        <time>2026-04-16T10:08:44Z</time>
      </trkpt>
      <trkpt lat="42.370806774124503" lon="3.10974164865911">
        <ele>230.37</ele>
        <time>2026-04-16T10:08:52Z</time>
      </trkpt>
      <trkpt lat="42.370814485475421" lon="3.109605526551604">
        <ele>231.81</ele>
        <time>2026-04-16T10:09:01Z</time>
      </trkpt>
      <trkpt lat="42.370822448283434" lon="3.109475942328572">
        <ele>232.30000000000001</ele>
        <time>2026-04-16T10:09:09Z</time>
      </trkpt>
      <trkpt lat="42.370845163241029" lon="3.109347447752953">
        <ele>233.25999999999999</ele>
        <time>2026-04-16T10:09:17Z</time>
      </trkpt>
      <trkpt lat="42.370887575671077" lon="3.109217109158635">
        <ele>234.69999999999999</ele>
        <time>2026-04-16T10:09:26Z</time>
      </trkpt>
      <trkpt lat="42.370952870696783" lon="3.109107473865151">
        <ele>235.66</ele>
        <time>2026-04-16T10:09:36Z</time>
      </trkpt>
      <trkpt lat="42.371029565110803" lon="3.109002867713571">
        <ele>235.66</ele>
        <time>2026-04-16T10:09:45Z</time>
      </trkpt>
      <trkpt lat="42.371119251474738" lon="3.108911672607064">
        <ele>235.66</ele>
        <time>2026-04-16T10:09:55Z</time>
      </trkpt>
      <trkpt lat="42.371228048577905" lon="3.1088493950665">
        <ele>234.22</ele>
        <time>2026-04-16T10:10:05Z</time>
      </trkpt>
      <trkpt lat="42.371333325281739" lon="3.108785692602396">
        <ele>233.25999999999999</ele>
        <time>2026-04-16T10:10:15Z</time>
      </trkpt>
      <trkpt lat="42.371435752138495" lon="3.108736826106906">
        <ele>232.78</ele>
        <time>2026-04-16T10:10:23Z</time>
      </trkpt>
      <trkpt lat="42.371535999700427" lon="3.108676811680198">
        <ele>232.30000000000001</ele>
        <time>2026-04-16T10:10:33Z</time>
      </trkpt>
      <trkpt lat="42.371621327474713" lon="3.108613444492221">
        <ele>231.81</ele>
        <time>2026-04-16T10:10:50Z</time>
      </trkpt>
      <trkpt lat="42.371725682169199" lon="3.108557034283876">
        <ele>230.37</ele>
        <time>2026-04-16T10:11:00Z</time>
      </trkpt>
      <trkpt lat="42.371823079884052" lon="3.108510430902243">
        <ele>230.37</ele>
        <time>2026-04-16T10:11:09Z</time>
      </trkpt>
      <trkpt lat="42.371917124837637" lon="3.108454188331962">
        <ele>228.93000000000001</ele>
        <time>2026-04-16T10:11:18Z</time>
      </trkpt>
      <trkpt lat="42.372022233903408" lon="3.108408255502582">
        <ele>227.97</ele>
        <time>2026-04-16T10:11:27Z</time>
      </trkpt>
      <trkpt lat="42.372124744579196" lon="3.108386378735304">
        <ele>227.00999999999999</ele>
        <time>2026-04-16T10:11:36Z</time>
      </trkpt>
      <trkpt lat="42.372242342680693" lon="3.108349246904254">
        <ele>226.53</ele>
        <time>2026-04-16T10:11:46Z</time>
      </trkpt>
      <trkpt lat="42.372288107872009" lon="3.1082156393677">
        <ele>225.56999999999999</ele>
        <time>2026-04-16T10:11:55Z</time>
      </trkpt>
      <trkpt lat="42.372232619673014" lon="3.108056718483567">
        <ele>224.12</ele>
        <time>2026-04-16T10:12:04Z</time>
      </trkpt>
      <trkpt lat="42.372160786762834" lon="3.107889499515295">
        <ele>222.19999999999999</ele>
        <time>2026-04-16T10:12:14Z</time>
      </trkpt>
      <trkpt lat="42.372142681851983" lon="3.107739631086588">
        <ele>220.75999999999999</ele>
        <time>2026-04-16T10:12:25Z</time>
      </trkpt>
      <trkpt lat="42.372205713763833" lon="3.107589175924659">
        <ele>219.80000000000001</ele>
        <time>2026-04-16T10:12:36Z</time>
      </trkpt>
      <trkpt lat="42.372287688776851" lon="3.10746219009161">
        <ele>218.84</ele>
        <time>2026-04-16T10:12:47Z</time>
      </trkpt>
      <trkpt lat="42.372367652133107" lon="3.107367977499962">
        <ele>217.88</ele>
        <time>2026-04-16T10:12:57Z</time>
      </trkpt>
      <trkpt lat="42.372489608824253" lon="3.107264712452889">
        <ele>216.43000000000001</ele>
        <time>2026-04-16T10:13:10Z</time>
      </trkpt>
      <trkpt lat="42.372642662376165" lon="3.107184078544378">
        <ele>214.99000000000001</ele>
        <time>2026-04-16T10:13:21Z</time>
      </trkpt>
      <trkpt lat="42.37274743616581" lon="3.107117945328355">
        <ele>214.03</ele>
        <time>2026-04-16T10:13:32Z</time>
      </trkpt>
      <trkpt lat="42.372858244925737" lon="3.107045274227858">
        <ele>212.11000000000001</ele>
        <time>2026-04-16T10:13:42Z</time>
      </trkpt>
      <trkpt lat="42.372969556599855" lon="3.106960784643889">
        <ele>210.66999999999999</ele>
        <time>2026-04-16T10:13:52Z</time>
      </trkpt>
      <trkpt lat="42.373075252398849" lon="3.106873193755746">
        <ele>210.19</ele>
        <time>2026-04-16T10:14:02Z</time>
      </trkpt>
      <trkpt lat="42.373142475262284" lon="3.106759283691645">
        <ele>209.22</ele>
        <time>2026-04-16T10:14:11Z</time>
      </trkpt>
      <trkpt lat="42.373127304017544" lon="3.106594327837229">
        <ele>208.25999999999999</ele>
        <time>2026-04-16T10:14:20Z</time>
      </trkpt>
      <trkpt lat="42.373058572411537" lon="3.10647807084024">
        <ele>207.30000000000001</ele>
        <time>2026-04-16T10:14:28Z</time>
      </trkpt>
      <trkpt lat="42.372965449467301" lon="3.106385618448257">
        <ele>206.81999999999999</ele>
        <time>2026-04-16T10:14:37Z</time>
      </trkpt>
      <trkpt lat="42.372884983196855" lon="3.106294674798846">
        <ele>206.34</ele>
        <time>2026-04-16T10:14:45Z</time>
      </trkpt>
      <trkpt lat="42.372811725363135" lon="3.106209011748433">
        <ele>204.90000000000001</ele>
        <time>2026-04-16T10:14:54Z</time>
      </trkpt>
      <trkpt lat="42.372733354568481" lon="3.106071967631578">
        <ele>202.49000000000001</ele>
        <time>2026-04-16T10:15:04Z</time>
      </trkpt>
      <trkpt lat="42.372683314606547" lon="3.10592251829803">
        <ele>201.05000000000001</ele>
        <time>2026-04-16T10:15:14Z</time>
      </trkpt>
      <trkpt lat="42.372654899954796" lon="3.105790419504046">
        <ele>199.13</ele>
        <time>2026-04-16T10:15:24Z</time>
      </trkpt>
      <trkpt lat="42.372610894963145" lon="3.105621105059981">
        <ele>198.16999999999999</ele>
        <time>2026-04-16T10:15:35Z</time>
      </trkpt>
      <trkpt lat="42.372560435906053" lon="3.105461010709405">
        <ele>197.21000000000001</ele>
        <time>2026-04-16T10:15:45Z</time>
      </trkpt>
      <trkpt lat="42.372510060667992" lon="3.105299491435289">
        <ele>196.72999999999999</ele>
        <time>2026-04-16T10:15:56Z</time>
      </trkpt>
      <trkpt lat="42.372435126453638" lon="3.105170745402575">
        <ele>195.77000000000001</ele>
        <time>2026-04-16T10:16:08Z</time>
      </trkpt>
      <trkpt lat="42.372370669618249" lon="3.105036048218608">
        <ele>193.84</ele>
        <time>2026-04-16T10:16:18Z</time>
      </trkpt>
      <trkpt lat="42.372302943840623" lon="3.104913420975208">
        <ele>192.40000000000001</ele>
        <time>2026-04-16T10:16:28Z</time>
      </trkpt>
      <trkpt lat="42.372283665463328" lon="3.10478987172246">
        <ele>190.47999999999999</ele>
        <time>2026-04-16T10:16:37Z</time>
      </trkpt>
      <trkpt lat="42.372297160327435" lon="3.10466137714684">
        <ele>189.52000000000001</ele>
        <time>2026-04-16T10:16:47Z</time>
      </trkpt>
      <trkpt lat="42.372306631878018" lon="3.104513604193926">
        <ele>188.56</ele>
        <time>2026-04-16T10:16:58Z</time>
      </trkpt>
      <trkpt lat="42.372310571372509" lon="3.104379745200276">
        <ele>188.08000000000001</ele>
        <time>2026-04-16T10:17:07Z</time>
      </trkpt>
      <trkpt lat="42.372335717082024" lon="3.104253429919481">
        <ele>186.63</ele>
        <time>2026-04-16T10:17:16Z</time>
      </trkpt>
      <trkpt lat="42.37236924469471" lon="3.104146309196949">
        <ele>186.15000000000001</ele>
        <time>2026-04-16T10:17:24Z</time>
      </trkpt>
      <trkpt lat="42.372416434809566" lon="3.104035835713148">
        <ele>185.19</ele>
        <time>2026-04-16T10:17:33Z</time>
      </trkpt>
      <trkpt lat="42.37243814393878" lon="3.103919494897127">
        <ele>183.75</ele>
        <time>2026-04-16T10:17:41Z</time>
      </trkpt>
      <trkpt lat="42.372428337112069" lon="3.103785049170256">
        <ele>182.31</ele>
        <time>2026-04-16T10:17:49Z</time>
      </trkpt>
      <trkpt lat="42.372400928288698" lon="3.103659991174936">
        <ele>181.83000000000001</ele>
        <time>2026-04-16T10:17:57Z</time>
      </trkpt>
      <trkpt lat="42.372382320463657" lon="3.103542141616345">
        <ele>180.38</ele>
        <time>2026-04-16T10:18:05Z</time>
      </trkpt>
      <trkpt lat="42.372355414554477" lon="3.10340509749949">
        <ele>178.94</ele>
        <time>2026-04-16T10:18:13Z</time>
      </trkpt>
      <trkpt lat="42.372336136177182" lon="3.103281632065773">
        <ele>178.46000000000001</ele>
        <time>2026-04-16T10:18:21Z</time>
      </trkpt>
      <trkpt lat="42.372313924133778" lon="3.103153388947249">
        <ele>177.5</ele>
        <time>2026-04-16T10:18:30Z</time>
      </trkpt>
      <trkpt lat="42.372280480340123" lon="3.103024810552597">
        <ele>177.5</ele>
        <time>2026-04-16T10:18:38Z</time>
      </trkpt>
      <trkpt lat="42.372252903878689" lon="3.102899417281151">
        <ele>177.02000000000001</ele>
        <time>2026-04-16T10:18:46Z</time>
      </trkpt>
      <trkpt lat="42.372210072353482" lon="3.102769497781992">
        <ele>176.06</ele>
        <time>2026-04-16T10:18:55Z</time>
      </trkpt>
      <trkpt lat="42.372178304940462" lon="3.102640500292182">
        <ele>176.06</ele>
        <time>2026-04-16T10:19:03Z</time>
      </trkpt>
      <trkpt lat="42.372153997421265" lon="3.102517202496529">
        <ele>175.09999999999999</ele>
        <time>2026-04-16T10:19:11Z</time>
      </trkpt>
      <trkpt lat="42.372145112603903" lon="3.102382840588689">
        <ele>174.13999999999999</ele>
        <time>2026-04-16T10:19:19Z</time>
      </trkpt>
      <trkpt lat="42.372129438444972" lon="3.102260548621416">
        <ele>174.13999999999999</ele>
        <time>2026-04-16T10:19:27Z</time>
      </trkpt>
      <trkpt lat="42.372101275250316" lon="3.102137167006731">
        <ele>173.16999999999999</ele>
        <time>2026-04-16T10:19:35Z</time>
      </trkpt>
      <trkpt lat="42.372060790657997" lon="3.102014372125268">
        <ele>172.21000000000001</ele>
        <time>2026-04-16T10:19:43Z</time>
      </trkpt>
      <trkpt lat="42.372007900848985" lon="3.101889565587044">
        <ele>172.21000000000001</ele>
        <time>2026-04-16T10:19:52Z</time>
      </trkpt>
      <trkpt lat="42.371926344931126" lon="3.101783869788051">
        <ele>170.77000000000001</ele>
        <time>2026-04-16T10:20:01Z</time>
      </trkpt>
      <trkpt lat="42.371847471222281" lon="3.101683454588056">
        <ele>169.81</ele>
        <time>2026-04-16T10:20:10Z</time>
      </trkpt>
      <trkpt lat="42.371765077114105" lon="3.101582704111934">
        <ele>168.37</ele>
        <time>2026-04-16T10:20:19Z</time>
      </trkpt>
      <trkpt lat="42.371665332466364" lon="3.101506512612104">
        <ele>167.88999999999999</ele>
        <time>2026-04-16T10:20:29Z</time>
      </trkpt>
      <trkpt lat="42.371568940579891" lon="3.101402828469873">
        <ele>166.93000000000001</ele>
        <time>2026-04-16T10:20:38Z</time>
      </trkpt>
      <trkpt lat="42.371495766565204" lon="3.101290510967374">
        <ele>165.96000000000001</ele>
        <time>2026-04-16T10:20:47Z</time>
      </trkpt>
      <trkpt lat="42.371422592550516" lon="3.101193783804774">
        <ele>165.47999999999999</ele>
        <time>2026-04-16T10:20:55Z</time>
      </trkpt>
      <trkpt lat="42.371349083259702" lon="3.101076353341341">
        <ele>165</ele>
        <time>2026-04-16T10:21:04Z</time>
      </trkpt>
      <trkpt lat="42.371293595060706" lon="3.100949283689261">
        <ele>164.52000000000001</ele>
        <time>2026-04-16T10:21:12Z</time>
      </trkpt>
      <trkpt lat="42.371247494593263" lon="3.100820537656546">
        <ele>164.52000000000001</ele>
        <time>2026-04-16T10:21:20Z</time>
      </trkpt>
      <trkpt lat="42.371231485158205" lon="3.100689025595784">
        <ele>164.03999999999999</ele>
        <time>2026-04-16T10:21:28Z</time>
      </trkpt>
      <trkpt lat="42.371203741058707" lon="3.100555334240198">
        <ele>163.56</ele>
        <time>2026-04-16T10:21:36Z</time>
      </trkpt>
      <trkpt lat="42.371167447417974" lon="3.100429689511657">
        <ele>163.56</ele>
        <time>2026-04-16T10:21:44Z</time>
      </trkpt>
      <trkpt lat="42.371132075786591" lon="3.100302871316671">
        <ele>163.08000000000001</ele>
        <time>2026-04-16T10:21:52Z</time>
      </trkpt>
      <trkpt lat="42.371081197634339" lon="3.100195582956076">
        <ele>162.59999999999999</ele>
        <time>2026-04-16T10:22:00Z</time>
      </trkpt>
      <trkpt lat="42.371026547625661" lon="3.100081672891974">
        <ele>161.63999999999999</ele>
        <time>2026-04-16T10:22:08Z</time>
      </trkpt>
      <trkpt lat="42.370961671695113" lon="3.099972456693649">
        <ele>161.63999999999999</ele>
        <time>2026-04-16T10:22:17Z</time>
      </trkpt>
      <trkpt lat="42.370897885411978" lon="3.09987279586494">
        <ele>160.68000000000001</ele>
        <time>2026-04-16T10:22:26Z</time>
      </trkpt>
      <trkpt lat="42.370847426354885" lon="3.099786546081305">
        <ele>159.72</ele>
        <time>2026-04-16T10:24:08Z</time>
      </trkpt>
      <trkpt lat="42.370800655335188" lon="3.099653106182814">
        <ele>157.31</ele>
        <time>2026-04-16T10:24:23Z</time>
      </trkpt>
      <trkpt lat="42.370744748041034" lon="3.099512876942754">
        <ele>154.91</ele>
        <time>2026-04-16T10:24:36Z</time>
      </trkpt>
      <trkpt lat="42.370673837140203" lon="3.09942377731204">
        <ele>152.99000000000001</ele>
        <time>2026-04-16T10:24:47Z</time>
      </trkpt>
      <trkpt lat="42.370649529621005" lon="3.099306095391512">
        <ele>150.09999999999999</ele>
        <time>2026-04-16T10:25:03Z</time>
      </trkpt>
      <trkpt lat="42.370596388354897" lon="3.099186485633254">
        <ele>146.74000000000001</ele>
        <time>2026-04-16T10:25:17Z</time>
      </trkpt>
      <trkpt lat="42.370529333129525" lon="3.099067714065313">
        <ele>143.37</ele>
        <time>2026-04-16T10:25:30Z</time>
      </trkpt>
      <trkpt lat="42.370444843545556" lon="3.098958749324083">
        <ele>140.97</ele>
        <time>2026-04-16T10:25:41Z</time>
      </trkpt>
      <trkpt lat="42.37034635618329" lon="3.098863866180182">
        <ele>138.56999999999999</ele>
        <time>2026-04-16T10:25:52Z</time>
      </trkpt>
      <trkpt lat="42.370272427797318" lon="3.098734617233276">
        <ele>135.19999999999999</ele>
        <time>2026-04-16T10:26:08Z</time>
      </trkpt>
      <trkpt lat="42.370204869657755" lon="3.098576869815588">
        <ele>131.36000000000001</ele>
        <time>2026-04-16T10:26:32Z</time>
      </trkpt>
      <trkpt lat="42.370127169415355" lon="3.098478801548481">
        <ele>128.47</ele>
        <time>2026-04-16T10:26:46Z</time>
      </trkpt>
      <trkpt lat="42.370074447244406" lon="3.098365310579538">
        <ele>124.63</ele>
        <time>2026-04-16T10:27:05Z</time>
      </trkpt>
      <trkpt lat="42.370104286819696" lon="3.098254418000579">
        <ele>121.73999999999999</ele>
        <time>2026-04-16T10:27:22Z</time>
      </trkpt>
      <trkpt lat="42.370112249627709" lon="3.098134724423289">
        <ele>119.34</ele>
        <time>2026-04-16T10:27:33Z</time>
      </trkpt>
      <trkpt lat="42.370082074776292" lon="3.098006648942828">
        <ele>119.34</ele>
        <time>2026-04-16T10:27:45Z</time>
      </trkpt>
      <trkpt lat="42.370009487494826" lon="3.097956608980894">
        <ele>119.34</ele>
        <time>2026-04-16T10:28:00Z</time>
      </trkpt>
      <trkpt lat="42.36990362405777" lon="3.097885111346841">
        <ele>118.38</ele>
        <time>2026-04-16T10:28:13Z</time>
      </trkpt>
      <trkpt lat="42.369818212464452" lon="3.097829706966877">
        <ele>117.42</ele>
        <time>2026-04-16T10:28:42Z</time>
      </trkpt>
      <trkpt lat="42.369703380391002" lon="3.097796682268381">
        <ele>116.94</ele>
        <time>2026-04-16T10:29:31Z</time>
      </trkpt>
      <trkpt lat="42.369600115343928" lon="3.097767010331154">
        <ele>116.45999999999999</ele>
        <time>2026-04-16T10:29:44Z</time>
      </trkpt>
      <trkpt lat="42.369630541652441" lon="3.097830042243004">
        <ele>116.94</ele>
        <time>2026-04-16T10:30:02Z</time>
      </trkpt>
      <trkpt lat="42.36975853331387" lon="3.097832389175892">
        <ele>116.45999999999999</ele>
        <time>2026-04-16T10:30:23Z</time>
      </trkpt>
      <trkpt lat="42.369847800582647" lon="3.09791436418891">
        <ele>116.45999999999999</ele>
        <time>2026-04-16T10:30:41Z</time>
      </trkpt>
      <trkpt lat="42.369788540527225" lon="3.09801260009408">
        <ele>116.45999999999999</ele>
        <time>2026-04-16T10:30:50Z</time>
      </trkpt>
      <trkpt lat="42.369707738980651" lon="3.098091306164861">
        <ele>116.45999999999999</ele>
        <time>2026-04-16T10:31:01Z</time>
      </trkpt>
      <trkpt lat="42.369613191112876" lon="3.0981410946697">
        <ele>117.90000000000001</ele>
        <time>2026-04-16T10:31:13Z</time>
      </trkpt>
      <trkpt lat="42.369499700143933" lon="3.098082756623626">
        <ele>117.90000000000001</ele>
        <time>2026-04-16T10:31:24Z</time>
      </trkpt>
      <trkpt lat="42.369415462017059" lon="3.097976641729474">
        <ele>116.45999999999999</ele>
        <time>2026-04-16T10:31:34Z</time>
      </trkpt>
      <trkpt lat="42.369329296052456" lon="3.097878657281399">
        <ele>117.90000000000001</ele>
        <time>2026-04-16T10:31:44Z</time>
      </trkpt>
      <trkpt lat="42.369260312989354" lon="3.097759550437331">
        <ele>117.90000000000001</ele>
        <time>2026-04-16T10:31:55Z</time>
      </trkpt>
      <trkpt lat="42.36926550976932" lon="3.097638934850693">
        <ele>115.01000000000001</ele>
        <time>2026-04-16T10:32:12Z</time>
      </trkpt>
      <trkpt lat="42.369201220571995" lon="3.097557881847024">
        <ele>113.09</ele>
        <time>2026-04-16T10:32:30Z</time>
      </trkpt>
      <trkpt lat="42.369114216417074" lon="3.097461489960551">
        <ele>113.09</ele>
        <time>2026-04-16T10:32:39Z</time>
      </trkpt>
      <trkpt lat="42.369034420698881" lon="3.097341377288103">
        <ele>113.09</ele>
        <time>2026-04-16T10:32:48Z</time>
      </trkpt>
      <trkpt lat="42.368970885872841" lon="3.097229646518827">
        <ele>114.53</ele>
        <time>2026-04-16T10:32:56Z</time>
      </trkpt>
      <trkpt lat="42.368905507028103" lon="3.097102157771587">
        <ele>114.53</ele>
        <time>2026-04-16T10:33:06Z</time>
      </trkpt>
      <trkpt lat="42.368836607784033" lon="3.096990091726184">
        <ele>114.53</ele>
        <time>2026-04-16T10:33:15Z</time>
      </trkpt>
      <trkpt lat="42.368768127635121" lon="3.096878696233034">
        <ele>114.53</ele>
        <time>2026-04-16T10:33:24Z</time>
      </trkpt>
      <trkpt lat="42.368684560060501" lon="3.096788758412004">
        <ele>113.09</ele>
        <time>2026-04-16T10:33:33Z</time>
      </trkpt>
      <trkpt lat="42.368576852604747" lon="3.096757996827364">
        <ele>112.61</ele>
        <time>2026-04-16T10:33:41Z</time>
      </trkpt>
      <trkpt lat="42.36847098916769" lon="3.096749698743224">
        <ele>112.13</ele>
        <time>2026-04-16T10:33:49Z</time>
      </trkpt>
      <trkpt lat="42.368356911465526" lon="3.096724888309836">
        <ele>112.13</ele>
        <time>2026-04-16T10:33:58Z</time>
      </trkpt>
      <trkpt lat="42.368262531235814" lon="3.096768893301487">
        <ele>111.65000000000001</ele>
        <time>2026-04-16T10:34:06Z</time>
      </trkpt>
      <trkpt lat="42.368171336129308" lon="3.096824130043387">
        <ele>111.65000000000001</ele>
        <time>2026-04-16T10:34:14Z</time>
      </trkpt>
      <trkpt lat="42.368084918707609" lon="3.096901495009661">
        <ele>111.65000000000001</ele>
        <time>2026-04-16T10:34:22Z</time>
      </trkpt>
      <trkpt lat="42.367994813248515" lon="3.096996797248721">
        <ele>111.65000000000001</ele>
        <time>2026-04-16T10:34:31Z</time>
      </trkpt>
      <trkpt lat="42.367909569293261" lon="3.097085813060403">
        <ele>111.65000000000001</ele>
        <time>2026-04-16T10:34:39Z</time>
      </trkpt>
      <trkpt lat="42.367831701412797" lon="3.097180780023336">
        <ele>111.65000000000001</ele>
        <time>2026-04-16T10:34:47Z</time>
      </trkpt>
      <trkpt lat="42.367756767198443" lon="3.097280608490109">
        <ele>111.65000000000001</ele>
        <time>2026-04-16T10:34:55Z</time>
      </trkpt>
      <trkpt lat="42.367669427767396" lon="3.097380939871073">
        <ele>110.69</ele>
        <time>2026-04-16T10:35:03Z</time>
      </trkpt>
      <trkpt lat="42.367602037265897" lon="3.097489066421986">
        <ele>110.69</ele>
        <time>2026-04-16T10:35:11Z</time>
      </trkpt>
      <trkpt lat="42.367541436105967" lon="3.097598450258374">
        <ele>110.69</ele>
        <time>2026-04-16T10:35:20Z</time>
      </trkpt>
      <trkpt lat="42.367500616237521" lon="3.097732728347182">
        <ele>112.13</ele>
        <time>2026-04-16T10:35:29Z</time>
      </trkpt>
      <trkpt lat="42.367470860481262" lon="3.097877986729145">
        <ele>112.13</ele>
        <time>2026-04-16T10:35:38Z</time>
      </trkpt>
      <trkpt lat="42.36743020825088" lon="3.098003463819623">
        <ele>112.13</ele>
        <time>2026-04-16T10:35:46Z</time>
      </trkpt>
      <trkpt lat="42.367368517443538" lon="3.098124414682388">
        <ele>112.13</ele>
        <time>2026-04-16T10:35:54Z</time>
      </trkpt>
      <trkpt lat="42.367305401712656" lon="3.098246036097407">
        <ele>110.69</ele>
        <time>2026-04-16T10:36:03Z</time>
      </trkpt>
      <trkpt lat="42.367234155535698" lon="3.098368579521775">
        <ele>110.20999999999999</ele>
        <time>2026-04-16T10:36:12Z</time>
      </trkpt>
      <trkpt lat="42.367168860509992" lon="3.098486596718431">
        <ele>109.73</ele>
        <time>2026-04-16T10:36:20Z</time>
      </trkpt>
      <trkpt lat="42.367117060348392" lon="3.098622299730778">
        <ele>109.73</ele>
        <time>2026-04-16T10:36:29Z</time>
      </trkpt>
      <trkpt lat="42.367061320692301" lon="3.098743921145797">
        <ele>109.25</ele>
        <time>2026-04-16T10:36:38Z</time>
      </trkpt>
      <trkpt lat="42.367000384256244" lon="3.098861519247294">
        <ele>109.25</ele>
        <time>2026-04-16T10:36:47Z</time>
      </trkpt>
      <trkpt lat="42.366915307939053" lon="3.098930418491364">
        <ele>108.77</ele>
        <time>2026-04-16T10:36:55Z</time>
      </trkpt>
      <trkpt lat="42.366817658767104" lon="3.098932094871998">
        <ele>107.81</ele>
        <time>2026-04-16T10:37:04Z</time>
      </trkpt>
      <trkpt lat="42.36673828214407" lon="3.098827069625258">
        <ele>106.84</ele>
        <time>2026-04-16T10:37:15Z</time>
      </trkpt>
      <trkpt lat="42.366661252453923" lon="3.098693629726768">
        <ele>107.81</ele>
        <time>2026-04-16T10:37:25Z</time>
      </trkpt>
      <trkpt lat="42.366559412330389" lon="3.098676027730107">
        <ele>107.81</ele>
        <time>2026-04-16T10:37:34Z</time>
      </trkpt>
      <trkpt lat="42.366456231102347" lon="3.098730258643627">
        <ele>107.81</ele>
        <time>2026-04-16T10:37:45Z</time>
      </trkpt>
      <trkpt lat="42.366351960226893" lon="3.098748698830605">
        <ele>106.36</ele>
        <time>2026-04-16T10:37:55Z</time>
      </trkpt>
      <trkpt lat="42.366245426237583" lon="3.09880318120122">
        <ele>106.36</ele>
        <time>2026-04-16T10:38:05Z</time>
      </trkpt>
      <trkpt lat="42.366145933046937" lon="3.098856573924422">
        <ele>106.36</ele>
        <time>2026-04-16T10:38:17Z</time>
      </trkpt>
      <trkpt lat="42.366066137328744" lon="3.098933938890696">
        <ele>106.36</ele>
        <time>2026-04-16T10:38:30Z</time>
      </trkpt>
      <trkpt lat="42.36598826944828" lon="3.099027145653963">
        <ele>108.29000000000001</ele>
        <time>2026-04-16T10:38:41Z</time>
      </trkpt>
      <trkpt lat="42.365922890603542" lon="3.099132170900703">
        <ele>108.77</ele>
        <time>2026-04-16T10:38:51Z</time>
      </trkpt>
      <trkpt lat="42.365816859528422" lon="3.099209619686008">
        <ele>108.77</ele>
        <time>2026-04-16T10:39:08Z</time>
      </trkpt>
      <trkpt lat="42.36580059863627" lon="3.099154969677329">
        <ele>106.36</ele>
        <time>2026-04-16T12:24:20Z</time>
      </trkpt>
      <trkpt lat="42.365910317748785" lon="3.099213475361466">
        <ele>106.36</ele>
        <time>2026-04-16T12:30:34Z</time>
      </trkpt>
      <trkpt lat="42.366002602502704" lon="3.099154969677329">
        <ele>106.36</ele>
        <time>2026-04-16T12:30:47Z</time>
      </trkpt>
      <trkpt lat="42.365932865068316" lon="3.099062014371157">
        <ele>106.36</ele>
        <time>2026-04-16T12:30:58Z</time>
      </trkpt>
      <trkpt lat="42.365893553942442" lon="3.099025133997202">
        <ele>105.40000000000001</ele>
        <time>2026-04-16T12:31:21Z</time>
      </trkpt>
      <trkpt lat="42.365925740450621" lon="3.098981631919742">
        <ele>103.48</ele>
        <time>2026-04-16T12:46:47Z</time>
      </trkpt>
      <trkpt lat="42.365820128470659" lon="3.098980290815234">
        <ele>103.48</ele>
        <time>2026-04-16T12:46:55Z</time>
      </trkpt>
      <trkpt lat="42.365693729370832" lon="3.098982805386186">
        <ele>103.48</ele>
        <time>2026-04-16T12:47:36Z</time>
      </trkpt>
      <trkpt lat="42.365585435181856" lon="3.098994959145784">
        <ele>103.48</ele>
        <time>2026-04-16T12:47:40Z</time>
      </trkpt>
      <trkpt lat="42.365478398278356" lon="3.099000910297036">
        <ele>103.48</ele>
        <time>2026-04-16T12:47:44Z</time>
      </trkpt>
      <trkpt lat="42.365358872339129" lon="3.099017338827252">
        <ele>102.52</ele>
        <time>2026-04-16T12:47:48Z</time>
      </trkpt>
      <trkpt lat="42.365255942568183" lon="3.099012980237603">
        <ele>102.52</ele>
        <time>2026-04-16T12:47:52Z</time>
      </trkpt>
      <trkpt lat="42.365137338638306" lon="3.098966795951128">
        <ele>102.52</ele>
        <time>2026-04-16T12:47:56Z</time>
      </trkpt>
      <trkpt lat="42.365009766072035" lon="3.098943661898375">
        <ele>102.04000000000001</ele>
        <time>2026-04-16T12:48:00Z</time>
      </trkpt>
      <trkpt lat="42.364882528781891" lon="3.098925389349461">
        <ele>102.04000000000001</ele>
        <time>2026-04-16T12:48:03Z</time>
      </trkpt>
      <trkpt lat="42.364775575697422" lon="3.098918851464987">
        <ele>102.04000000000001</ele>
        <time>2026-04-16T12:48:06Z</time>
      </trkpt>
      <trkpt lat="42.364652948454022" lon="3.098926227539778">
        <ele>102.04000000000001</ele>
        <time>2026-04-16T12:48:09Z</time>
      </trkpt>
      <trkpt lat="42.36451749689877" lon="3.098953384906054">
        <ele>102.04000000000001</ele>
        <time>2026-04-16T12:48:12Z</time>
      </trkpt>
      <trkpt lat="42.36437332816422" lon="3.098982302471995">
        <ele>102.04000000000001</ele>
        <time>2026-04-16T12:48:15Z</time>
      </trkpt>
      <trkpt lat="42.364278864115477" lon="3.098997892811894">
        <ele>102.04000000000001</ele>
        <time>2026-04-16T12:48:17Z</time>
      </trkpt>
      <trkpt lat="42.364142322912812" lon="3.099009543657303">
        <ele>102.04000000000001</ele>
        <time>2026-04-16T12:48:20Z</time>
      </trkpt>
      <trkpt lat="42.364033609628677" lon="3.099012728780508">
        <ele>102.04000000000001</ele>
        <time>2026-04-16T12:48:24Z</time>
      </trkpt>
      <trkpt lat="42.363902600482106" lon="3.098970651626587">
        <ele>101.56</ele>
        <time>2026-04-16T12:48:34Z</time>
      </trkpt>
      <trkpt lat="42.363809812813997" lon="3.098888425156474">
        <ele>101.56</ele>
        <time>2026-04-16T12:48:39Z</time>
      </trkpt>
      <trkpt lat="42.363752648234367" lon="3.098792368546128">
        <ele>101.56</ele>
        <time>2026-04-16T12:48:42Z</time>
      </trkpt>
      <trkpt lat="42.3636887781322" lon="3.098662197589874">
        <ele>101.56</ele>
        <time>2026-04-16T12:48:45Z</time>
      </trkpt>
      <trkpt lat="42.363643683493137" lon="3.098547700792551">
        <ele>101.56</ele>
        <time>2026-04-16T12:48:47Z</time>
      </trkpt>
      <trkpt lat="42.363605881109834" lon="3.098420714959502">
        <ele>101.56</ele>
        <time>2026-04-16T12:48:49Z</time>
      </trkpt>
      <trkpt lat="42.363567911088467" lon="3.098250478506088">
        <ele>101.56</ele>
        <time>2026-04-16T12:48:52Z</time>
      </trkpt>
      <trkpt lat="42.363535305485129" lon="3.098127767443657">
        <ele>101.08</ele>
        <time>2026-04-16T12:48:56Z</time>
      </trkpt>
      <trkpt lat="42.363508399575949" lon="3.098006648942828">
        <ele>100.59999999999999</ele>
        <time>2026-04-16T12:48:59Z</time>
      </trkpt>
      <trkpt lat="42.363487696275115" lon="3.097885781899095">
        <ele>100.59999999999999</ele>
        <time>2026-04-16T12:49:02Z</time>
      </trkpt>
      <trkpt lat="42.363459449261427" lon="3.097758460789919">
        <ele>100.59999999999999</ele>
        <time>2026-04-16T12:49:06Z</time>
      </trkpt>
      <trkpt lat="42.363412762060761" lon="3.097626361995935">
        <ele>100.11</ele>
        <time>2026-04-16T12:49:11Z</time>
      </trkpt>
      <trkpt lat="42.363371020182967" lon="3.097502226009965">
        <ele>100.11</ele>
        <time>2026-04-16T12:49:15Z</time>
      </trkpt>
      <trkpt lat="42.363328104838729" lon="3.097390830516815">
        <ele>100.11</ele>
        <time>2026-04-16T12:49:18Z</time>
      </trkpt>
      <trkpt lat="42.363280998542905" lon="3.097261162474752">
        <ele>101.08</ele>
        <time>2026-04-16T12:49:21Z</time>
      </trkpt>
      <trkpt lat="42.363226264715195" lon="3.097143648192287">
        <ele>102.04000000000001</ele>
        <time>2026-04-16T12:49:25Z</time>
      </trkpt>
      <trkpt lat="42.36316004768014" lon="3.097027223557234">
        <ele>102.52</ele>
        <time>2026-04-16T12:49:35Z</time>
      </trkpt>
      <trkpt lat="42.363091483712196" lon="3.096941476687789">
        <ele>103</ele>
        <time>2026-04-16T12:49:38Z</time>
      </trkpt>
      <trkpt lat="42.363017220050097" lon="3.096849611029029">
        <ele>103.95999999999999</ele>
        <time>2026-04-16T12:49:41Z</time>
      </trkpt>
      <trkpt lat="42.362930802628398" lon="3.096755230799317">
        <ele>104.44</ele>
        <time>2026-04-16T12:49:44Z</time>
      </trkpt>
      <trkpt lat="42.362853521481156" lon="3.096681134775281">
        <ele>104.92</ele>
        <time>2026-04-16T12:49:47Z</time>
      </trkpt>
      <trkpt lat="42.362749837338924" lon="3.096600249409676">
        <ele>104.92</ele>
        <time>2026-04-16T12:49:50Z</time>
      </trkpt>
      <trkpt lat="42.362623186782002" lon="3.096532020717859">
        <ele>105.40000000000001</ele>
        <time>2026-04-16T12:49:53Z</time>
      </trkpt>
      <trkpt lat="42.362511791288853" lon="3.096487345173955">
        <ele>105.40000000000001</ele>
        <time>2026-04-16T12:49:56Z</time>
      </trkpt>
      <trkpt lat="42.362392768263817" lon="3.096454823389649">
        <ele>105.40000000000001</ele>
        <time>2026-04-16T12:49:59Z</time>
      </trkpt>
      <trkpt lat="42.362292353063822" lon="3.096433952450752">
        <ele>103.95999999999999</ele>
        <time>2026-04-16T12:50:01Z</time>
      </trkpt>
      <trkpt lat="42.362158326432109" lon="3.096439903602004">
        <ele>103.95999999999999</ele>
        <time>2026-04-16T12:50:04Z</time>
      </trkpt>
      <trkpt lat="42.362033100798726" lon="3.096478460356593">
        <ele>105.40000000000001</ele>
        <time>2026-04-16T12:50:07Z</time>
      </trkpt>
      <trkpt lat="42.361917346715927" lon="3.096520286053419">
        <ele>105.88</ele>
        <time>2026-04-16T12:50:10Z</time>
      </trkpt>
      <trkpt lat="42.361820871010423" lon="3.096551466733217">
        <ele>106.84</ele>
        <time>2026-04-16T12:50:13Z</time>
      </trkpt>
      <trkpt lat="42.36168147996068" lon="3.096606368198991">
        <ele>106.84</ele>
        <time>2026-04-16T12:50:16Z</time>
      </trkpt>
      <trkpt lat="42.361562876030803" lon="3.096658671274781">
        <ele>106.84</ele>
        <time>2026-04-16T12:50:19Z</time>
      </trkpt>
      <trkpt lat="42.36145181581378" lon="3.096717931330204">
        <ele>107.31999999999999</ele>
        <time>2026-04-16T12:50:23Z</time>
      </trkpt>
      <trkpt lat="42.361355423927307" lon="3.096768138930202">
        <ele>108.77</ele>
        <time>2026-04-16T12:50:27Z</time>
      </trkpt>
      <trkpt lat="42.361266994848847" lon="3.096836283802986">
        <ele>109.25</ele>
        <time>2026-04-16T12:50:31Z</time>
      </trkpt>
      <trkpt lat="42.361178314313293" lon="3.096923707053065">
        <ele>110.20999999999999</ele>
        <time>2026-04-16T12:50:36Z</time>
      </trkpt>
      <trkpt lat="42.361086197197437" lon="3.096951115876436">
        <ele>110.69</ele>
        <time>2026-04-16T12:50:42Z</time>
      </trkpt>
      <trkpt lat="42.361014112830162" lon="3.096884647384286">
        <ele>110.69</ele>
        <time>2026-04-16T12:50:48Z</time>
      </trkpt>
      <trkpt lat="42.361004389822483" lon="3.09676906093955">
        <ele>108.29000000000001</ele>
        <time>2026-04-16T12:50:55Z</time>
      </trkpt>
      <trkpt lat="42.360937669873238" lon="3.09673335403204">
        <ele>106.84</ele>
        <time>2026-04-16T12:51:00Z</time>
      </trkpt>
      <trkpt lat="42.360856030136347" lon="3.096846425905824">
        <ele>104.92</ele>
        <time>2026-04-16T12:51:04Z</time>
      </trkpt>
      <trkpt lat="42.36079509370029" lon="3.096972238272429">
        <ele>103.95999999999999</ele>
        <time>2026-04-16T12:51:07Z</time>
      </trkpt>
      <trkpt lat="42.360712448135018" lon="3.097068462520838">
        <ele>102.52</ele>
        <time>2026-04-16T12:51:10Z</time>
      </trkpt>
      <trkpt lat="42.360617062076926" lon="3.097135266289115">
        <ele>101.08</ele>
        <time>2026-04-16T12:51:13Z</time>
      </trkpt>
      <trkpt lat="42.360525028780103" lon="3.097182707861066">
        <ele>98.670000000000002</ele>
        <time>2026-04-16T12:51:16Z</time>
      </trkpt>
      <trkpt lat="42.360426625236869" lon="3.097232412546873">
        <ele>97.709999999999994</ele>
        <time>2026-04-16T12:51:19Z</time>
      </trkpt>
      <trkpt lat="42.360322270542383" lon="3.097259989008308">
        <ele>95.790000000000006</ele>
        <time>2026-04-16T12:51:26Z</time>
      </trkpt>
      <trkpt lat="42.360204672440886" lon="3.097307933494449">
        <ele>93.870000000000005</ele>
        <time>2026-04-16T12:51:31Z</time>
      </trkpt>
      <trkpt lat="42.360117584466934" lon="3.097343221306801">
        <ele>92.900000000000006</ele>
        <time>2026-04-16T12:51:34Z</time>
      </trkpt>
      <trkpt lat="42.360017923638225" lon="3.097395356744528">
        <ele>90.980000000000004</ele>
        <time>2026-04-16T12:51:38Z</time>
      </trkpt>
      <trkpt lat="42.359918346628547" lon="3.097436260432005">
        <ele>89.540000000000006</ele>
        <time>2026-04-16T12:51:42Z</time>
      </trkpt>
      <trkpt lat="42.359807202592492" lon="3.097483366727829">
        <ele>87.620000000000005</ele>
        <time>2026-04-16T12:51:46Z</time>
      </trkpt>
      <trkpt lat="42.359701758250594" lon="3.097555618733168">
        <ele>85.689999999999998</ele>
        <time>2026-04-16T12:51:50Z</time>
      </trkpt>
      <trkpt lat="42.359629338607192" lon="3.09762317687273">
        <ele>83.769999999999996</ele>
        <time>2026-04-16T12:51:54Z</time>
      </trkpt>
      <trkpt lat="42.359556835144758" lon="3.097718143835664">
        <ele>83.290000000000006</ele>
        <time>2026-04-16T12:51:59Z</time>
      </trkpt>
      <trkpt lat="42.359470250084996" lon="3.097729459404945">
        <ele>82.810000000000002</ele>
        <time>2026-04-16T12:52:05Z</time>
      </trkpt>
      <trkpt lat="42.359354663640261" lon="3.097697272896767">
        <ele>81.849999999999994</ele>
        <time>2026-04-16T12:52:09Z</time>
      </trkpt>
      <trkpt lat="42.359222481027246" lon="3.097671456634998">
        <ele>81.849999999999994</ele>
        <time>2026-04-16T12:52:12Z</time>
      </trkpt>
      <trkpt lat="42.359112091362476" lon="3.097641700878739">
        <ele>82.329999999999998</ele>
        <time>2026-04-16T12:52:15Z</time>
      </trkpt>
      <trkpt lat="42.358996337279677" lon="3.097614292055368">
        <ele>81.849999999999994</ele>
        <time>2026-04-16T12:52:18Z</time>
      </trkpt>
      <trkpt lat="42.358887707814574" lon="3.097589313983917">
        <ele>81.849999999999994</ele>
        <time>2026-04-16T12:52:21Z</time>
      </trkpt>
      <trkpt lat="42.358775725588202" lon="3.097561821341515">
        <ele>81.849999999999994</ele>
        <time>2026-04-16T12:52:24Z</time>
      </trkpt>
      <trkpt lat="42.358663072809577" lon="3.097562994807959">
        <ele>81.849999999999994</ele>
        <time>2026-04-16T12:52:27Z</time>
      </trkpt>
      <trkpt lat="42.358560729771852" lon="3.097598031163216">
        <ele>81.370000000000005</ele>
        <time>2026-04-16T12:52:30Z</time>
      </trkpt>
      <trkpt lat="42.358461320400238" lon="3.09765050187707">
        <ele>81.370000000000005</ele>
        <time>2026-04-16T12:52:33Z</time>
      </trkpt>
      <trkpt lat="42.358368113636971" lon="3.097696015611291">
        <ele>81.370000000000005</ele>
        <time>2026-04-16T12:52:36Z</time>
      </trkpt>
      <trkpt lat="42.358269290998578" lon="3.097722250968218">
        <ele>80.890000000000001</ele>
        <time>2026-04-16T12:52:40Z</time>
      </trkpt>
      <trkpt lat="42.358162337914109" lon="3.097718479111791">
        <ele>80.409999999999997</ele>
        <time>2026-04-16T12:52:46Z</time>
      </trkpt>
      <trkpt lat="42.358068628236651" lon="3.097714791074395">
        <ele>79.930000000000007</ele>
        <time>2026-04-16T12:52:52Z</time>
      </trkpt>
      <trkpt lat="42.357979360967875" lon="3.097713952884078">
        <ele>79.450000000000003</ele>
        <time>2026-04-16T12:52:58Z</time>
      </trkpt>
      <trkpt lat="42.357862014323473" lon="3.097725855186582">
        <ele>78.969999999999999</ele>
        <time>2026-04-16T12:53:10Z</time>
      </trkpt>
      <trkpt lat="42.357764113694429" lon="3.097742954269052">
        <ele>78.969999999999999</ele>
        <time>2026-04-16T12:53:14Z</time>
      </trkpt>
      <trkpt lat="42.35767425969243" lon="3.09776097536087">
        <ele>81.370000000000005</ele>
        <time>2026-04-16T12:53:17Z</time>
      </trkpt>
      <trkpt lat="42.357539143413305" lon="3.097778828814626">
        <ele>81.849999999999994</ele>
        <time>2026-04-16T12:53:20Z</time>
      </trkpt>
      <trkpt lat="42.357412911951542" lon="3.097799615934491">
        <ele>81.849999999999994</ele>
        <time>2026-04-16T12:53:23Z</time>
      </trkpt>
      <trkpt lat="42.357277879491448" lon="3.097838927060366">
        <ele>82.329999999999998</ele>
        <time>2026-04-16T12:53:26Z</time>
      </trkpt>
      <trkpt lat="42.357151731848717" lon="3.097899192944169">
        <ele>82.810000000000002</ele>
        <time>2026-04-16T12:53:29Z</time>
      </trkpt>
      <trkpt lat="42.357030278071761" lon="3.097967840731144">
        <ele>81.370000000000005</ele>
        <time>2026-04-16T12:53:32Z</time>
      </trkpt>
      <trkpt lat="42.356949225068092" lon="3.098021736368537">
        <ele>81.370000000000005</ele>
        <time>2026-04-16T12:53:34Z</time>
      </trkpt>
      <trkpt lat="42.35683967359364" lon="3.098122738301754">
        <ele>80.890000000000001</ele>
        <time>2026-04-16T12:53:37Z</time>
      </trkpt>
      <trkpt lat="42.35673900693655" lon="3.098247293382883">
        <ele>79.930000000000007</ele>
        <time>2026-04-16T12:53:40Z</time>
      </trkpt>
      <trkpt lat="42.356669940054417" lon="3.098337482661009">
        <ele>79.930000000000007</ele>
        <time>2026-04-16T12:53:42Z</time>
      </trkpt>
      <trkpt lat="42.356593078002334" lon="3.098432030528784">
        <ele>78.969999999999999</ele>
        <time>2026-04-16T12:53:46Z</time>
      </trkpt>
      <trkpt lat="42.356524849310517" lon="3.098507802933455">
        <ele>77.519999999999996</ele>
        <time>2026-04-16T12:53:51Z</time>
      </trkpt>
      <trkpt lat="42.356452764943242" lon="3.098589694127441">
        <ele>77.519999999999996</ele>
        <time>2026-04-16T12:53:57Z</time>
      </trkpt>
      <trkpt lat="42.356356624513865" lon="3.098682062700391">
        <ele>79.450000000000003</ele>
        <time>2026-04-16T12:54:00Z</time>
      </trkpt>
      <trkpt lat="42.356281522661448" lon="3.098775185644627">
        <ele>79.450000000000003</ele>
        <time>2026-04-16T12:54:02Z</time>
      </trkpt>
      <trkpt lat="42.356208767741919" lon="3.098910469561815">
        <ele>79.450000000000003</ele>
        <time>2026-04-16T12:54:04Z</time>
      </trkpt>
      <trkpt lat="42.356150262057781" lon="3.099055560305715">
        <ele>78</ele>
        <time>2026-04-16T12:54:07Z</time>
      </trkpt>
      <trkpt lat="42.35609452240169" lon="3.099216911941767">
        <ele>78</ele>
        <time>2026-04-16T12:54:10Z</time>
      </trkpt>
      <trkpt lat="42.356056552380323" lon="3.099379101768136">
        <ele>78</ele>
        <time>2026-04-16T12:54:13Z</time>
      </trkpt>
      <trkpt lat="42.356032831594348" lon="3.099524946883321">
        <ele>78</ele>
        <time>2026-04-16T12:54:16Z</time>
      </trkpt>
      <trkpt lat="42.356001734733582" lon="3.099705660715699">
        <ele>78</ele>
        <time>2026-04-16T12:54:19Z</time>
      </trkpt>
      <trkpt lat="42.35597969032824" lon="3.09982493519783">
        <ele>77.519999999999996</ele>
        <time>2026-04-16T12:54:21Z</time>
      </trkpt>
      <trkpt lat="42.355948761105537" lon="3.099986370652914">
        <ele>77.519999999999996</ele>
        <time>2026-04-16T12:54:24Z</time>
      </trkpt>
      <trkpt lat="42.355905426666141" lon="3.100142944604158">
        <ele>77.519999999999996</ele>
        <time>2026-04-16T12:54:27Z</time>
      </trkpt>
      <trkpt lat="42.355856476351619" lon="3.100274540483952">
        <ele>78.480000000000004</ele>
        <time>2026-04-16T12:54:30Z</time>
      </trkpt>
      <trkpt lat="42.355785565450788" lon="3.100399682298303">
        <ele>78.480000000000004</ele>
        <time>2026-04-16T12:54:33Z</time>
      </trkpt>
      <trkpt lat="42.355694286525249" lon="3.100535804405808">
        <ele>78.969999999999999</ele>
        <time>2026-04-16T12:54:36Z</time>
      </trkpt>
      <trkpt lat="42.355629662051797" lon="3.100636973977089">
        <ele>79.930000000000007</ele>
        <time>2026-04-16T12:54:38Z</time>
      </trkpt>
      <trkpt lat="42.355562690645456" lon="3.100753063336015">
        <ele>80.409999999999997</ele>
        <time>2026-04-16T12:54:41Z</time>
      </trkpt>
      <trkpt lat="42.355484571307898" lon="3.100887760519981">
        <ele>79.930000000000007</ele>
        <time>2026-04-16T12:54:44Z</time>
      </trkpt>
      <trkpt lat="42.355426987633109" lon="3.101008627563715">
        <ele>79.930000000000007</ele>
        <time>2026-04-16T12:54:46Z</time>
      </trkpt>
      <trkpt lat="42.355356495827436" lon="3.10117257758975">
        <ele>78.969999999999999</ele>
        <time>2026-04-16T12:54:49Z</time>
      </trkpt>
      <trkpt lat="42.355304025113583" lon="3.101308196783066">
        <ele>78.969999999999999</ele>
        <time>2026-04-16T12:54:51Z</time>
      </trkpt>
      <trkpt lat="42.355248117819428" lon="3.101452281698585">
        <ele>78</ele>
        <time>2026-04-16T12:54:53Z</time>
      </trkpt>
      <trkpt lat="42.355171088129282" lon="3.101616315543652">
        <ele>77.519999999999996</ele>
        <time>2026-04-16T12:54:56Z</time>
      </trkpt>
      <trkpt lat="42.355095818638802" lon="3.101716227829456">
        <ele>77.519999999999996</ele>
        <time>2026-04-16T12:54:58Z</time>
      </trkpt>
      <trkpt lat="42.355015771463513" lon="3.101787054911256">
        <ele>77.040000000000006</ele>
        <time>2026-04-16T12:55:00Z</time>
      </trkpt>
      <trkpt lat="42.354910243302584" lon="3.101878333836794">
        <ele>77.040000000000006</ele>
        <time>2026-04-16T12:55:03Z</time>
      </trkpt>
      <trkpt lat="42.354822149500251" lon="3.101989645510912">
        <ele>77.040000000000006</ele>
        <time>2026-04-16T12:55:06Z</time>
      </trkpt>
      <trkpt lat="42.354729194194078" lon="3.102131551131606">
        <ele>76.560000000000002</ele>
        <time>2026-04-16T12:55:09Z</time>
      </trkpt>
      <trkpt lat="42.354641100391746" lon="3.102264907211065">
        <ele>76.560000000000002</ele>
        <time>2026-04-16T12:55:12Z</time>
      </trkpt>
      <trkpt lat="42.354556610807776" lon="3.102393820881844">
        <ele>76.560000000000002</ele>
        <time>2026-04-16T12:55:15Z</time>
      </trkpt>
      <trkpt lat="42.354469355195761" lon="3.102524159476161">
        <ele>75.120000000000005</ele>
        <time>2026-04-16T12:55:18Z</time>
      </trkpt>
      <trkpt lat="42.35439014621079" lon="3.102649049833417">
        <ele>75.120000000000005</ele>
        <time>2026-04-16T12:55:21Z</time>
      </trkpt>
      <trkpt lat="42.354327281937003" lon="3.102756254374981">
        <ele>74.640000000000001</ele>
        <time>2026-04-16T12:55:23Z</time>
      </trkpt>
      <trkpt lat="42.354269027709961" lon="3.102865386754274">
        <ele>74.159999999999997</ele>
        <time>2026-04-16T12:55:25Z</time>
      </trkpt>
      <trkpt lat="42.354214377701283" lon="3.102973848581314">
        <ele>73.200000000000003</ele>
        <time>2026-04-16T12:55:27Z</time>
      </trkpt>
      <trkpt lat="42.354156458750367" lon="3.1030816398561">
        <ele>73.200000000000003</ele>
        <time>2026-04-16T12:55:29Z</time>
      </trkpt>
      <trkpt lat="42.354075908660889" lon="3.103222707286477">
        <ele>72.719999999999999</ele>
        <time>2026-04-16T12:55:32Z</time>
      </trkpt>
      <trkpt lat="42.354007428511977" lon="3.103338545188308">
        <ele>71.760000000000005</ele>
        <time>2026-04-16T12:55:35Z</time>
      </trkpt>
      <trkpt lat="42.353941882029176" lon="3.103447007015348">
        <ele>71.760000000000005</ele>
        <time>2026-04-16T12:55:38Z</time>
      </trkpt>
      <trkpt lat="42.353882789611816" lon="3.10354926623404">
        <ele>71.269999999999996</ele>
        <time>2026-04-16T12:55:42Z</time>
      </trkpt>
      <trkpt lat="42.353828977793455" lon="3.103672228753567">
        <ele>70.790000000000006</ele>
        <time>2026-04-16T12:55:50Z</time>
      </trkpt>
      <trkpt lat="42.353795450180769" lon="3.10380918905139">
        <ele>70.310000000000002</ele>
        <time>2026-04-16T12:55:55Z</time>
      </trkpt>
      <trkpt lat="42.3537920974195" lon="3.103960650041699">
        <ele>69.829999999999998</ele>
        <time>2026-04-16T12:55:58Z</time>
      </trkpt>
      <trkpt lat="42.353752534836531" lon="3.104138597846031">
        <ele>68.870000000000005</ele>
        <time>2026-04-16T12:56:01Z</time>
      </trkpt>
      <trkpt lat="42.353711882606149" lon="3.104259632527828">
        <ele>67.909999999999997</ele>
        <time>2026-04-16T12:56:03Z</time>
      </trkpt>
      <trkpt lat="42.35366796143353" lon="3.104382008314133">
        <ele>66.469999999999999</ele>
        <time>2026-04-16T12:56:07Z</time>
      </trkpt>
      <trkpt lat="42.35363032668829" lon="3.104519639164209">
        <ele>66.469999999999999</ele>
        <time>2026-04-16T12:56:10Z</time>
      </trkpt>
      <trkpt lat="42.353591518476605" lon="3.104672944173217">
        <ele>66.469999999999999</ele>
        <time>2026-04-16T12:56:13Z</time>
      </trkpt>
      <trkpt lat="42.353555727750063" lon="3.104811580851674">
        <ele>65.989999999999995</ele>
        <time>2026-04-16T12:56:16Z</time>
      </trkpt>
      <trkpt lat="42.353522283956409" lon="3.104974441230297">
        <ele>67.430000000000007</ele>
        <time>2026-04-16T12:56:19Z</time>
      </trkpt>
      <trkpt lat="42.353501161560416" lon="3.10511483810842">
        <ele>67.430000000000007</ele>
        <time>2026-04-16T12:56:21Z</time>
      </trkpt>
      <trkpt lat="42.353492444381118" lon="3.105269316583872">
        <ele>65.989999999999995</ele>
        <time>2026-04-16T12:56:24Z</time>
      </trkpt>
      <trkpt lat="42.353490516543388" lon="3.105425806716085">
        <ele>65.989999999999995</ele>
        <time>2026-04-16T12:56:27Z</time>
      </trkpt>
      <trkpt lat="42.353479787707329" lon="3.105590092018247">
        <ele>65.510000000000005</ele>
        <time>2026-04-16T12:56:30Z</time>
      </trkpt>
      <trkpt lat="42.353460006415844" lon="3.105731997638941">
        <ele>65.510000000000005</ele>
        <time>2026-04-16T12:56:33Z</time>
      </trkpt>
      <trkpt lat="42.353430250659585" lon="3.105885637924075">
        <ele>65.510000000000005</ele>
        <time>2026-04-16T12:56:36Z</time>
      </trkpt>
      <trkpt lat="42.353403260931373" lon="3.10600658878684">
        <ele>65.510000000000005</ele>
        <time>2026-04-16T12:56:38Z</time>
      </trkpt>
      <trkpt lat="42.353366883471608" lon="3.106150086969137">
        <ele>65.030000000000001</ele>
        <time>2026-04-16T12:56:41Z</time>
      </trkpt>
      <trkpt lat="42.353330757468939" lon="3.106294255703688">
        <ele>64.549999999999997</ele>
        <time>2026-04-16T12:56:44Z</time>
      </trkpt>
      <trkpt lat="42.35329907387495" lon="3.10643264092505">
        <ele>64.069999999999993</ele>
        <time>2026-04-16T12:56:47Z</time>
      </trkpt>
      <trkpt lat="42.353267222642899" lon="3.106566080823541">
        <ele>63.579999999999998</ele>
        <time>2026-04-16T12:56:53Z</time>
      </trkpt>
      <trkpt lat="42.353239059448242" lon="3.106685606762767">
        <ele>63.579999999999998</ele>
        <time>2026-04-16T12:56:57Z</time>
      </trkpt>
      <trkpt lat="42.353204190731049" lon="3.106838827952743">
        <ele>63.579999999999998</ele>
        <time>2026-04-16T12:57:00Z</time>
      </trkpt>
      <trkpt lat="42.353168316185474" lon="3.107001269236207">
        <ele>63.579999999999998</ele>
        <time>2026-04-16T12:57:03Z</time>
      </trkpt>
      <trkpt lat="42.353132274001837" lon="3.107172176241875">
        <ele>63.579999999999998</ele>
        <time>2026-04-16T12:57:06Z</time>
      </trkpt>
      <trkpt lat="42.35310704447329" lon="3.107351800426841">
        <ele>63.100000000000001</ele>
        <time>2026-04-16T12:57:09Z</time>
      </trkpt>
      <trkpt lat="42.353096315637231" lon="3.107496555894613">
        <ele>62.140000000000001</ele>
        <time>2026-04-16T12:57:13Z</time>
      </trkpt>
      <trkpt lat="42.35309137031436" lon="3.107643825933337">
        <ele>61.659999999999997</ele>
        <time>2026-04-16T12:57:20Z</time>
      </trkpt>
      <trkpt lat="42.353079132735729" lon="3.107784055173397">
        <ele>61.659999999999997</ele>
        <time>2026-04-16T12:57:24Z</time>
      </trkpt>
      <trkpt lat="42.353060776367784" lon="3.107931241393089">
        <ele>61.659999999999997</ele>
        <time>2026-04-16T12:57:28Z</time>
      </trkpt>
      <trkpt lat="42.353025069460273" lon="3.108067447319627">
        <ele>61.659999999999997</ele>
        <time>2026-04-16T12:57:33Z</time>
      </trkpt>
      <trkpt lat="42.353004366159439" lon="3.108188230544329">
        <ele>61.659999999999997</ele>
        <time>2026-04-16T12:57:36Z</time>
      </trkpt>
      <trkpt lat="42.353007383644581" lon="3.10832753777504">
        <ele>63.579999999999998</ele>
        <time>2026-04-16T12:57:38Z</time>
      </trkpt>
      <trkpt lat="42.353016352280974" lon="3.108507161960006">
        <ele>63.579999999999998</ele>
        <time>2026-04-16T12:57:41Z</time>
      </trkpt>
      <trkpt lat="42.353023644536734" lon="3.108641523867846">
        <ele>63.579999999999998</ele>
        <time>2026-04-16T12:57:43Z</time>
      </trkpt>
      <trkpt lat="42.353030266240239" lon="3.108776556327939">
        <ele>63.579999999999998</ele>
        <time>2026-04-16T12:57:45Z</time>
      </trkpt>
      <trkpt lat="42.353037558495998" lon="3.108921814709902">
        <ele>63.579999999999998</ele>
        <time>2026-04-16T12:57:47Z</time>
      </trkpt>
      <trkpt lat="42.353043258190155" lon="3.109045028686523">
        <ele>63.579999999999998</ele>
        <time>2026-04-16T12:57:49Z</time>
      </trkpt>
      <trkpt lat="42.353051220998168" lon="3.109206799417734">
        <ele>63.579999999999998</ele>
        <time>2026-04-16T12:57:52Z</time>
      </trkpt>
      <trkpt lat="42.353058680891991" lon="3.109373934566975">
        <ele>62.140000000000001</ele>
        <time>2026-04-16T12:57:56Z</time>
      </trkpt>
      <trkpt lat="42.353063458576798" lon="3.109538555145264">
        <ele>61.659999999999997</ele>
        <time>2026-04-16T12:57:59Z</time>
      </trkpt>
      <trkpt lat="42.353066643700004" lon="3.109695967286825">
        <ele>61.659999999999997</ele>
        <time>2026-04-16T12:58:02Z</time>
      </trkpt>
      <trkpt lat="42.353015094995499" lon="3.109813649207354">
        <ele>60.219999999999999</ele>
        <time>2026-04-16T12:58:06Z</time>
      </trkpt>
      <trkpt lat="42.352920630946755" lon="3.109802752733231">
        <ele>60.219999999999999</ele>
        <time>2026-04-16T12:58:09Z</time>
      </trkpt>
      <trkpt lat="42.352826585993171" lon="3.109771655872464">
        <ele>61.659999999999997</ele>
        <time>2026-04-16T12:58:18Z</time>
      </trkpt>
      <trkpt lat="42.352738743647933" lon="3.109822785481811">
        <ele>61.659999999999997</ele>
        <time>2026-04-16T12:58:26Z</time>
      </trkpt>
      <trkpt lat="42.35272248275578" lon="3.109973324462771">
        <ele>61.659999999999997</ele>
        <time>2026-04-16T12:58:32Z</time>
      </trkpt>
    </trkseg>
  </trk>

</gpx>
